<?xml version="1.0" encoding="UTF-8"?>
<gpx xmlns:xsi="http://www.w3.org/2001/XMLSchema-instance" xmlns="http://www.topografix.com/GPX/1/1" xsi:schemaLocation="http://www.topografix.com/GPX/1/1 http://www.topografix.com/GPX/1/1/gpx.xsd" version="1.1">
  <metadata>
    <name>GR Tri - 2021 (Half Bike)</name>
    <copyright author="OpenStreetMap contributors">
      <year>2020</year>
      <license>https://www.openstreetmap.org/copyright</license>
    </copyright>
    <link href="https://www.strava.com/routes/2751875623615816324"/>
  </metadata>
  <trk>
    <name>GR Tri - 2021 (Half Bike)</name>
    <link href="https://www.strava.com/routes/2751875623615816324"/>
    <type>Radfahrt</type>
    <trkseg>
      <trkpt lat="42.942893" lon="-85.47836">
        <ele>199.369998</ele>
        <time>2024-06-09T07:38:00.000Z</time>
      </trkpt>
      <trkpt lat="42.9429025112" lon="-85.4774375006">
        <ele>198.740005</ele>
        <time>2024-06-09T07:38:08.000Z</time>
      </trkpt>
      <trkpt lat="42.942915015" lon="-85.4765010007">
        <ele>198.300003</ele>
        <time>2024-06-09T07:38:16.000Z</time>
      </trkpt>
      <trkpt lat="42.9429265112" lon="-85.4755745006">
        <ele>197.719993</ele>
        <time>2024-06-09T07:38:24.000Z</time>
      </trkpt>
      <trkpt lat="42.942931" lon="-85.474655">
        <ele>196.779999</ele>
        <time>2024-06-09T07:38:31.000Z</time>
      </trkpt>
      <trkpt lat="42.9429500019" lon="-85.4739789999">
        <ele>195.890001</ele>
        <time>2024-06-09T07:38:37.000Z</time>
      </trkpt>
      <trkpt lat="42.942958" lon="-85.473324">
        <ele>195.439994</ele>
        <time>2024-06-09T07:38:42.000Z</time>
      </trkpt>
      <trkpt lat="42.942947" lon="-85.472579">
        <ele>195.210009</ele>
        <time>2024-06-09T07:38:48.000Z</time>
      </trkpt>
      <trkpt lat="42.942864" lon="-85.471992">
        <ele>195.049997</ele>
        <time>2024-06-09T07:38:53.000Z</time>
      </trkpt>
      <trkpt lat="42.942787" lon="-85.471704">
        <ele>194.909996</ele>
        <time>2024-06-09T07:38:55.000Z</time>
      </trkpt>
      <trkpt lat="42.942659" lon="-85.471306">
        <ele>194.759999</ele>
        <time>2024-06-09T07:38:59.000Z</time>
      </trkpt>
      <trkpt lat="42.942413" lon="-85.470733">
        <ele>194.65</ele>
        <time>2024-06-09T07:39:04.000Z</time>
      </trkpt>
      <trkpt lat="42.942015" lon="-85.470074">
        <ele>194.599995</ele>
        <time>2024-06-09T07:39:11.000Z</time>
      </trkpt>
      <trkpt lat="42.9414860315" lon="-85.4691729293">
        <ele>194.870006</ele>
        <time>2024-06-09T07:39:20.000Z</time>
      </trkpt>
      <trkpt lat="42.940947056" lon="-85.4682718744">
        <ele>194.899996</ele>
        <time>2024-06-09T07:39:29.000Z</time>
      </trkpt>
      <trkpt lat="42.9404000735" lon="-85.4673708351">
        <ele>194.919991</ele>
        <time>2024-06-09T07:39:39.000Z</time>
      </trkpt>
      <trkpt lat="42.939863084" lon="-85.4664848115">
        <ele>195.009993</ele>
        <time>2024-06-09T07:39:48.000Z</time>
      </trkpt>
      <trkpt lat="42.9393180875" lon="-85.4655918037">
        <ele>195.059991</ele>
        <time>2024-06-09T07:39:57.000Z</time>
      </trkpt>
      <trkpt lat="42.938782084" lon="-85.4646888115">
        <ele>195.030002</ele>
        <time>2024-06-09T07:40:06.000Z</time>
      </trkpt>
      <trkpt lat="42.9382410735" lon="-85.4637908351">
        <ele>194.760001</ele>
        <time>2024-06-09T07:40:15.000Z</time>
      </trkpt>
      <trkpt lat="42.937716056" lon="-85.4628858743">
        <ele>194.640008</ele>
        <time>2024-06-09T07:40:24.000Z</time>
      </trkpt>
      <trkpt lat="42.9371680315" lon="-85.4619879293">
        <ele>194.270002</ele>
        <time>2024-06-09T07:40:34.000Z</time>
      </trkpt>
      <trkpt lat="42.936627" lon="-85.461092">
        <ele>194.379993</ele>
        <time>2024-06-09T07:40:43.000Z</time>
      </trkpt>
      <trkpt lat="42.936355" lon="-85.460679">
        <ele>194.57</ele>
        <time>2024-06-09T07:40:48.000Z</time>
      </trkpt>
      <trkpt lat="42.935910007" lon="-85.4599404842">
        <ele>194.720002</ele>
        <time>2024-06-09T07:40:56.000Z</time>
      </trkpt>
      <trkpt lat="42.9354710094" lon="-85.4592119789">
        <ele>194.989992</ele>
        <time>2024-06-09T07:41:04.000Z</time>
      </trkpt>
      <trkpt lat="42.9350340071" lon="-85.4584794842">
        <ele>195.259994</ele>
        <time>2024-06-09T07:41:12.000Z</time>
      </trkpt>
      <trkpt lat="42.934574" lon="-85.457758">
        <ele>195.769999</ele>
        <time>2024-06-09T07:41:20.000Z</time>
      </trkpt>
      <trkpt lat="42.9341720042" lon="-85.4570569908">
        <ele>197.790004</ele>
        <time>2024-06-09T07:41:27.000Z</time>
      </trkpt>
      <trkpt lat="42.9337520042" lon="-85.4563739908">
        <ele>199.000005</ele>
        <time>2024-06-09T07:41:34.000Z</time>
      </trkpt>
      <trkpt lat="42.933345" lon="-85.455689">
        <ele>199.070009</ele>
        <time>2024-06-09T07:41:41.000Z</time>
      </trkpt>
      <trkpt lat="42.9328523397" lon="-85.4548173195">
        <ele>198.319993</ele>
        <time>2024-06-09T07:41:50.000Z</time>
      </trkpt>
      <trkpt lat="42.9323606731" lon="-85.4539756529">
        <ele>196.719994</ele>
        <time>2024-06-09T07:41:59.000Z</time>
      </trkpt>
      <trkpt lat="42.931856" lon="-85.453109">
        <ele>195.569997</ele>
        <time>2024-06-09T07:42:08.000Z</time>
      </trkpt>
      <trkpt lat="42.9313048075" lon="-85.4521896004">
        <ele>193.450005</ele>
        <time>2024-06-09T07:42:18.000Z</time>
      </trkpt>
      <trkpt lat="42.9307576075" lon="-85.4512632174">
        <ele>192.130002</ele>
        <time>2024-06-09T07:42:28.000Z</time>
      </trkpt>
      <trkpt lat="42.9302074001" lon="-85.450347851">
        <ele>192.189992</ele>
        <time>2024-06-09T07:42:38.000Z</time>
      </trkpt>
      <trkpt lat="42.9296491853" lon="-85.4494195011">
        <ele>193.220005</ele>
        <time>2024-06-09T07:42:48.000Z</time>
      </trkpt>
      <trkpt lat="42.9291049631" lon="-85.4484891678">
        <ele>194.019993</ele>
        <time>2024-06-09T07:42:58.000Z</time>
      </trkpt>
      <trkpt lat="42.9285447334" lon="-85.447563851">
        <ele>194.799994</ele>
        <time>2024-06-09T07:43:08.000Z</time>
      </trkpt>
      <trkpt lat="42.9279914964" lon="-85.4466475508">
        <ele>194.720009</ele>
        <time>2024-06-09T07:43:18.000Z</time>
      </trkpt>
      <trkpt lat="42.9274342519" lon="-85.4457272671">
        <ele>194.320009</ele>
        <time>2024-06-09T07:43:28.000Z</time>
      </trkpt>
      <trkpt lat="42.926885" lon="-85.444807">
        <ele>195.010002</ele>
        <time>2024-06-09T07:43:38.000Z</time>
      </trkpt>
      <trkpt lat="42.9263960362" lon="-85.4438379303">
        <ele>195.860006</ele>
        <time>2024-06-09T07:43:48.000Z</time>
      </trkpt>
      <trkpt lat="42.9258930644" lon="-85.4428818761">
        <ele>197.199995</ele>
        <time>2024-06-09T07:43:58.000Z</time>
      </trkpt>
      <trkpt lat="42.9253970846" lon="-85.4419128373">
        <ele>195.56</ele>
        <time>2024-06-09T07:44:08.000Z</time>
      </trkpt>
      <trkpt lat="42.9249150967" lon="-85.4409548141">
        <ele>195.080001</ele>
        <time>2024-06-09T07:44:17.000Z</time>
      </trkpt>
      <trkpt lat="42.9244141007" lon="-85.4399948064">
        <ele>193.590002</ele>
        <time>2024-06-09T07:44:27.000Z</time>
      </trkpt>
      <trkpt lat="42.9239160967" lon="-85.4390218141">
        <ele>193.289992</ele>
        <time>2024-06-09T07:44:37.000Z</time>
      </trkpt>
      <trkpt lat="42.9234120846" lon="-85.4380748373">
        <ele>193.730006</ele>
        <time>2024-06-09T07:44:47.000Z</time>
      </trkpt>
      <trkpt lat="42.9229230644" lon="-85.4371058761">
        <ele>194.340005</ele>
        <time>2024-06-09T07:44:57.000Z</time>
      </trkpt>
      <trkpt lat="42.9224170362" lon="-85.4361499303">
        <ele>195.619999</ele>
        <time>2024-06-09T07:45:07.000Z</time>
      </trkpt>
      <trkpt lat="42.921938" lon="-85.435183">
        <ele>195.970007</ele>
        <time>2024-06-09T07:45:17.000Z</time>
      </trkpt>
      <trkpt lat="42.921607002" lon="-85.4345099965">
        <ele>196.409994</ele>
        <time>2024-06-09T07:45:24.000Z</time>
      </trkpt>
      <trkpt lat="42.92128" lon="-85.433836">
        <ele>196.599997</ele>
        <time>2024-06-09T07:45:31.000Z</time>
      </trkpt>
      <trkpt lat="42.9209100038" lon="-85.4328959945">
        <ele>196.020007</ele>
        <time>2024-06-09T07:45:40.000Z</time>
      </trkpt>
      <trkpt lat="42.920552" lon="-85.431961">
        <ele>194.72</ele>
        <time>2024-06-09T07:45:49.000Z</time>
      </trkpt>
      <trkpt lat="42.920181" lon="-85.430928">
        <ele>194.820001</ele>
        <time>2024-06-09T07:45:58.000Z</time>
      </trkpt>
      <trkpt lat="42.919985" lon="-85.430124">
        <ele>195.729994</ele>
        <time>2024-06-09T07:46:05.000Z</time>
      </trkpt>
      <trkpt lat="42.9197880038" lon="-85.4291889968">
        <ele>195.330008</ele>
        <time>2024-06-09T07:46:13.000Z</time>
      </trkpt>
      <trkpt lat="42.919577" lon="-85.428244">
        <ele>195.530001</ele>
        <time>2024-06-09T07:46:21.000Z</time>
      </trkpt>
      <trkpt lat="42.9194060046" lon="-85.4272099969">
        <ele>195.749998</ele>
        <time>2024-06-09T07:46:30.000Z</time>
      </trkpt>
      <trkpt lat="42.919221" lon="-85.426199">
        <ele>196.230007</ele>
        <time>2024-06-09T07:46:38.000Z</time>
      </trkpt>
      <trkpt lat="42.919017" lon="-85.425208">
        <ele>196.740009</ele>
        <time>2024-06-09T07:46:46.000Z</time>
      </trkpt>
      <trkpt lat="42.918829" lon="-85.424613">
        <ele>197.289992</ele>
        <time>2024-06-09T07:46:51.000Z</time>
      </trkpt>
      <trkpt lat="42.9184740027" lon="-85.4238379955">
        <ele>198.009997</ele>
        <time>2024-06-09T07:46:58.000Z</time>
      </trkpt>
      <trkpt lat="42.918102" lon="-85.423053">
        <ele>196.980008</ele>
        <time>2024-06-09T07:47:06.000Z</time>
      </trkpt>
      <trkpt lat="42.918018" lon="-85.422813">
        <ele>196.760001</ele>
        <time>2024-06-09T07:47:08.000Z</time>
      </trkpt>
      <trkpt lat="42.917846" lon="-85.422121">
        <ele>195.599999</ele>
        <time>2024-06-09T07:47:14.000Z</time>
      </trkpt>
      <trkpt lat="42.917721" lon="-85.421216">
        <ele>196.609996</ele>
        <time>2024-06-09T07:47:22.000Z</time>
      </trkpt>
      <trkpt lat="42.917616" lon="-85.420177">
        <ele>197.529998</ele>
        <time>2024-06-09T07:47:31.000Z</time>
      </trkpt>
      <trkpt lat="42.917595" lon="-85.419551">
        <ele>198.089994</ele>
        <time>2024-06-09T07:47:36.000Z</time>
      </trkpt>
      <trkpt lat="42.9176480025" lon="-85.4187960005">
        <ele>198.460001</ele>
        <time>2024-06-09T07:47:42.000Z</time>
      </trkpt>
      <trkpt lat="42.917717" lon="-85.418055">
        <ele>198.320004</ele>
        <time>2024-06-09T07:47:48.000Z</time>
      </trkpt>
      <trkpt lat="42.9178160034" lon="-85.4171660014">
        <ele>197.190008</ele>
        <time>2024-06-09T07:47:55.000Z</time>
      </trkpt>
      <trkpt lat="42.917936" lon="-85.416303">
        <ele>197.029997</ele>
        <time>2024-06-09T07:48:02.000Z</time>
      </trkpt>
      <trkpt lat="42.917971" lon="-85.415605">
        <ele>196.699995</ele>
        <time>2024-06-09T07:48:08.000Z</time>
      </trkpt>
      <trkpt lat="42.9179910129" lon="-85.4146210003">
        <ele>195.759996</ele>
        <time>2024-06-09T07:48:16.000Z</time>
      </trkpt>
      <trkpt lat="42.9179830172" lon="-85.4136160004">
        <ele>195.709992</ele>
        <time>2024-06-09T07:48:24.000Z</time>
      </trkpt>
      <trkpt lat="42.9179920129" lon="-85.4126230003">
        <ele>195.679992</ele>
        <time>2024-06-09T07:48:32.000Z</time>
      </trkpt>
      <trkpt lat="42.918002" lon="-85.411637">
        <ele>195.589997</ele>
        <time>2024-06-09T07:48:40.000Z</time>
      </trkpt>
      <trkpt lat="42.917975" lon="-85.410545">
        <ele>194.269998</ele>
        <time>2024-06-09T07:48:49.000Z</time>
      </trkpt>
      <trkpt lat="42.917907" lon="-85.409782">
        <ele>194.539994</ele>
        <time>2024-06-09T07:48:55.000Z</time>
      </trkpt>
      <trkpt lat="42.917911" lon="-85.409808">
        <ele>194.540005</ele>
        <time>2024-06-09T07:48:55.000Z</time>
      </trkpt>
      <trkpt lat="42.9178440024" lon="-85.4090539995">
        <ele>195.439991</ele>
        <time>2024-06-09T07:49:01.000Z</time>
      </trkpt>
      <trkpt lat="42.917775" lon="-85.408305">
        <ele>196.169993</ele>
        <time>2024-06-09T07:49:07.000Z</time>
      </trkpt>
      <trkpt lat="42.9176580017" lon="-85.4076799986">
        <ele>197.079992</ele>
        <time>2024-06-09T07:49:12.000Z</time>
      </trkpt>
      <trkpt lat="42.917569" lon="-85.40706">
        <ele>197.939994</ele>
        <time>2024-06-09T07:49:17.000Z</time>
      </trkpt>
      <trkpt lat="42.9174540022" lon="-85.406356999">
        <ele>199.200006</ele>
        <time>2024-06-09T07:49:23.000Z</time>
      </trkpt>
      <trkpt lat="42.917351" lon="-85.40565">
        <ele>200.280003</ele>
        <time>2024-06-09T07:49:29.000Z</time>
      </trkpt>
      <trkpt lat="42.917356" lon="-85.404965">
        <ele>200.239998</ele>
        <time>2024-06-09T07:49:35.000Z</time>
      </trkpt>
      <trkpt lat="42.917377" lon="-85.404725">
        <ele>200.059993</ele>
        <time>2024-06-09T07:49:37.000Z</time>
      </trkpt>
      <trkpt lat="42.9175210036" lon="-85.4038140024">
        <ele>199.420005</ele>
        <time>2024-06-09T07:49:45.000Z</time>
      </trkpt>
      <trkpt lat="42.917696" lon="-85.402895">
        <ele>199.029997</ele>
        <time>2024-06-09T07:49:53.000Z</time>
      </trkpt>
      <trkpt lat="42.917778" lon="-85.402526">
        <ele>199.620008</ele>
        <time>2024-06-09T07:49:56.000Z</time>
      </trkpt>
      <trkpt lat="42.917932" lon="-85.402022">
        <ele>200.360005</ele>
        <time>2024-06-09T07:50:00.000Z</time>
      </trkpt>
      <trkpt lat="42.918242" lon="-85.401253">
        <ele>200.309995</ele>
        <time>2024-06-09T07:50:07.000Z</time>
      </trkpt>
      <trkpt lat="42.918322" lon="-85.400992">
        <ele>200.299995</ele>
        <time>2024-06-09T07:50:09.000Z</time>
      </trkpt>
      <trkpt lat="42.9184886724" lon="-85.4001720044">
        <ele>200.680008</ele>
        <time>2024-06-09T07:50:16.000Z</time>
      </trkpt>
      <trkpt lat="42.918659339" lon="-85.3993770044">
        <ele>201.809996</ele>
        <time>2024-06-09T07:50:23.000Z</time>
      </trkpt>
      <trkpt lat="42.918837" lon="-85.398553">
        <ele>202.000008</ele>
        <time>2024-06-09T07:50:30.000Z</time>
      </trkpt>
      <trkpt lat="42.919095" lon="-85.397445">
        <ele>202.520003</ele>
        <time>2024-06-09T07:50:39.000Z</time>
      </trkpt>
      <trkpt lat="42.919347673" lon="-85.3965786738">
        <ele>201.330006</ele>
        <time>2024-06-09T07:50:47.000Z</time>
      </trkpt>
      <trkpt lat="42.9195953396" lon="-85.3957393405">
        <ele>200.460006</ele>
        <time>2024-06-09T07:50:54.000Z</time>
      </trkpt>
      <trkpt lat="42.919855" lon="-85.39488">
        <ele>199.370009</ele>
        <time>2024-06-09T07:51:02.000Z</time>
      </trkpt>
      <trkpt lat="42.919969" lon="-85.394418">
        <ele>199.209994</ele>
        <time>2024-06-09T07:51:06.000Z</time>
      </trkpt>
      <trkpt lat="42.9201100016" lon="-85.3938170014">
        <ele>199.390003</ele>
        <time>2024-06-09T07:51:11.000Z</time>
      </trkpt>
      <trkpt lat="42.920242" lon="-85.393196">
        <ele>199.370007</ele>
        <time>2024-06-09T07:51:16.000Z</time>
      </trkpt>
      <trkpt lat="42.9203970027" lon="-85.3924110019">
        <ele>199.449997</ele>
        <time>2024-06-09T07:51:23.000Z</time>
      </trkpt>
      <trkpt lat="42.920553" lon="-85.391626">
        <ele>199.930002</ele>
        <time>2024-06-09T07:51:30.000Z</time>
      </trkpt>
      <trkpt lat="42.920656" lon="-85.390901">
        <ele>199.600004</ele>
        <time>2024-06-09T07:51:36.000Z</time>
      </trkpt>
      <trkpt lat="42.920713" lon="-85.390461">
        <ele>199.650003</ele>
        <time>2024-06-09T07:51:40.000Z</time>
      </trkpt>
      <trkpt lat="42.920779" lon="-85.389612">
        <ele>200.019996</ele>
        <time>2024-06-09T07:51:47.000Z</time>
      </trkpt>
      <trkpt lat="42.9208440048" lon="-85.3885520011">
        <ele>199.790008</ele>
        <time>2024-06-09T07:51:56.000Z</time>
      </trkpt>
      <trkpt lat="42.920925" lon="-85.387502">
        <ele>199.700001</ele>
        <time>2024-06-09T07:52:05.000Z</time>
      </trkpt>
      <trkpt lat="42.9209340017" lon="-85.3868730002">
        <ele>199.740009</ele>
        <time>2024-06-09T07:52:10.000Z</time>
      </trkpt>
      <trkpt lat="42.920939" lon="-85.386265">
        <ele>199.860006</ele>
        <time>2024-06-09T07:52:15.000Z</time>
      </trkpt>
      <trkpt lat="42.920941" lon="-85.385832">
        <ele>199.809998</ele>
        <time>2024-06-09T07:52:19.000Z</time>
      </trkpt>
      <trkpt lat="42.921002" lon="-85.385448">
        <ele>199.520002</ele>
        <time>2024-06-09T07:52:22.000Z</time>
      </trkpt>
      <trkpt lat="42.921268" lon="-85.384313">
        <ele>198.8</ele>
        <time>2024-06-09T07:52:32.000Z</time>
      </trkpt>
      <trkpt lat="42.9214890028" lon="-85.3835180029">
        <ele>196.300007</ele>
        <time>2024-06-09T07:52:39.000Z</time>
      </trkpt>
      <trkpt lat="42.921734" lon="-85.382721">
        <ele>195.789995</ele>
        <time>2024-06-09T07:52:46.000Z</time>
      </trkpt>
      <trkpt lat="42.921829" lon="-85.382352">
        <ele>195.849997</ele>
        <time>2024-06-09T07:52:49.000Z</time>
      </trkpt>
      <trkpt lat="42.9220100036" lon="-85.3814270029">
        <ele>196.060003</ele>
        <time>2024-06-09T07:52:57.000Z</time>
      </trkpt>
      <trkpt lat="42.922194" lon="-85.380504">
        <ele>195.589998</ele>
        <time>2024-06-09T07:53:05.000Z</time>
      </trkpt>
      <trkpt lat="42.92236" lon="-85.379443">
        <ele>195.359992</ele>
        <time>2024-06-09T07:53:14.000Z</time>
      </trkpt>
      <trkpt lat="42.922401" lon="-85.378914">
        <ele>195.460006</ele>
        <time>2024-06-09T07:53:18.000Z</time>
      </trkpt>
      <trkpt lat="42.922467" lon="-85.37787">
        <ele>195.599999</ele>
        <time>2024-06-09T07:53:27.000Z</time>
      </trkpt>
      <trkpt lat="42.922468" lon="-85.376752">
        <ele>195.150002</ele>
        <time>2024-06-09T07:53:36.000Z</time>
      </trkpt>
      <trkpt lat="42.9223783202" lon="-85.3755909904">
        <ele>195.650003</ele>
        <time>2024-06-09T07:53:46.000Z</time>
      </trkpt>
      <trkpt lat="42.922299629" lon="-85.374446984">
        <ele>196.300001</ele>
        <time>2024-06-09T07:53:55.000Z</time>
      </trkpt>
      <trkpt lat="42.9222099262" lon="-85.3733079808">
        <ele>196.919998</ele>
        <time>2024-06-09T07:54:04.000Z</time>
      </trkpt>
      <trkpt lat="42.9221282119" lon="-85.3721439808">
        <ele>197.459999</ele>
        <time>2024-06-09T07:54:14.000Z</time>
      </trkpt>
      <trkpt lat="42.9220504861" lon="-85.370992984">
        <ele>195.980005</ele>
        <time>2024-06-09T07:54:23.000Z</time>
      </trkpt>
      <trkpt lat="42.9219487488" lon="-85.3698549904">
        <ele>195.329996</ele>
        <time>2024-06-09T07:54:32.000Z</time>
      </trkpt>
      <trkpt lat="42.921864" lon="-85.368691">
        <ele>195.210003</ele>
        <time>2024-06-09T07:54:42.000Z</time>
      </trkpt>
      <trkpt lat="42.9217630098" lon="-85.3676446632">
        <ele>195.510005</ele>
        <time>2024-06-09T07:54:51.000Z</time>
      </trkpt>
      <trkpt lat="42.9216760098" lon="-85.3665793298">
        <ele>196.449994</ele>
        <time>2024-06-09T07:55:00.000Z</time>
      </trkpt>
      <trkpt lat="42.921567" lon="-85.365518">
        <ele>197.080004</ele>
        <time>2024-06-09T07:55:09.000Z</time>
      </trkpt>
      <trkpt lat="42.921464014" lon="-85.3644659947">
        <ele>197.249994</ele>
        <time>2024-06-09T07:55:18.000Z</time>
      </trkpt>
      <trkpt lat="42.9213590186" lon="-85.3634349929">
        <ele>196.500002</ele>
        <time>2024-06-09T07:55:26.000Z</time>
      </trkpt>
      <trkpt lat="42.921261014" lon="-85.3624079947">
        <ele>196.890002</ele>
        <time>2024-06-09T07:55:34.000Z</time>
      </trkpt>
      <trkpt lat="42.921158" lon="-85.361377">
        <ele>197.780007</ele>
        <time>2024-06-09T07:55:42.000Z</time>
      </trkpt>
      <trkpt lat="42.9210850047" lon="-85.3603299987">
        <ele>197.639993</ele>
        <time>2024-06-09T07:55:51.000Z</time>
      </trkpt>
      <trkpt lat="42.92101" lon="-85.359284">
        <ele>195.499993</ele>
        <time>2024-06-09T07:56:00.000Z</time>
      </trkpt>
      <trkpt lat="42.920994" lon="-85.358461">
        <ele>194.54</ele>
        <time>2024-06-09T07:56:07.000Z</time>
      </trkpt>
      <trkpt lat="42.9210170026" lon="-85.3576920003">
        <ele>194.319997</ele>
        <time>2024-06-09T07:56:13.000Z</time>
      </trkpt>
      <trkpt lat="42.921044" lon="-85.356915">
        <ele>194.470008</ele>
        <time>2024-06-09T07:56:19.000Z</time>
      </trkpt>
      <trkpt lat="42.9211160024" lon="-85.3561890009">
        <ele>194.460004</ele>
        <time>2024-06-09T07:56:25.000Z</time>
      </trkpt>
      <trkpt lat="42.921187" lon="-85.355443">
        <ele>194.450005</ele>
        <time>2024-06-09T07:56:31.000Z</time>
      </trkpt>
      <trkpt lat="42.921344" lon="-85.354314">
        <ele>195.129995</ele>
        <time>2024-06-09T07:56:40.000Z</time>
      </trkpt>
      <trkpt lat="42.921525004" lon="-85.3533460027">
        <ele>195.920001</ele>
        <time>2024-06-09T07:56:48.000Z</time>
      </trkpt>
      <trkpt lat="42.921696" lon="-85.352406">
        <ele>198.050006</ele>
        <time>2024-06-09T07:56:56.000Z</time>
      </trkpt>
      <trkpt lat="42.9218943393" lon="-85.3515750051">
        <ele>198.16</ele>
        <time>2024-06-09T07:57:03.000Z</time>
      </trkpt>
      <trkpt lat="42.9220936727" lon="-85.350740005">
        <ele>197.690007</ele>
        <time>2024-06-09T07:57:10.000Z</time>
      </trkpt>
      <trkpt lat="42.922271" lon="-85.34991">
        <ele>197.670008</ele>
        <time>2024-06-09T07:57:17.000Z</time>
      </trkpt>
      <trkpt lat="42.9224520068" lon="-85.3490313382">
        <ele>198.500003</ele>
        <time>2024-06-09T07:57:24.000Z</time>
      </trkpt>
      <trkpt lat="42.9226110069" lon="-85.3481376715">
        <ele>197.729999</ele>
        <time>2024-06-09T07:57:31.000Z</time>
      </trkpt>
      <trkpt lat="42.922791" lon="-85.347253">
        <ele>193.880001</ele>
        <time>2024-06-09T07:57:38.000Z</time>
      </trkpt>
      <trkpt lat="42.9230353419" lon="-85.3462496748">
        <ele>192.750008</ele>
        <time>2024-06-09T07:57:47.000Z</time>
      </trkpt>
      <trkpt lat="42.9232906753" lon="-85.3452623414">
        <ele>192.370003</ele>
        <time>2024-06-09T07:57:56.000Z</time>
      </trkpt>
      <trkpt lat="42.923553" lon="-85.344269">
        <ele>194.280009</ele>
        <time>2024-06-09T07:58:05.000Z</time>
      </trkpt>
      <trkpt lat="42.9237370029" lon="-85.3434550026">
        <ele>196.099998</ele>
        <time>2024-06-09T07:58:12.000Z</time>
      </trkpt>
      <trkpt lat="42.923935" lon="-85.342631">
        <ele>195.800003</ele>
        <time>2024-06-09T07:58:19.000Z</time>
      </trkpt>
      <trkpt lat="42.9241420059" lon="-85.3418180056">
        <ele>195.160007</ele>
        <time>2024-06-09T07:58:26.000Z</time>
      </trkpt>
      <trkpt lat="42.9243420059" lon="-85.3409830055">
        <ele>196.420005</ele>
        <time>2024-06-09T07:58:33.000Z</time>
      </trkpt>
      <trkpt lat="42.924552" lon="-85.340174">
        <ele>197.259994</ele>
        <time>2024-06-09T07:58:40.000Z</time>
      </trkpt>
      <trkpt lat="42.924629" lon="-85.339866">
        <ele>197.399993</ele>
        <time>2024-06-09T07:58:43.000Z</time>
      </trkpt>
      <trkpt lat="42.924647" lon="-85.339461">
        <ele>197.849994</ele>
        <time>2024-06-09T07:58:46.000Z</time>
      </trkpt>
      <trkpt lat="42.924689008" lon="-85.338515001">
        <ele>197.320003</ele>
        <time>2024-06-09T07:58:54.000Z</time>
      </trkpt>
      <trkpt lat="42.924713008" lon="-85.337541001">
        <ele>196.719991</ele>
        <time>2024-06-09T07:59:02.000Z</time>
      </trkpt>
      <trkpt lat="42.924746" lon="-85.336584">
        <ele>196.929994</ele>
        <time>2024-06-09T07:59:10.000Z</time>
      </trkpt>
      <trkpt lat="42.924828" lon="-85.335919">
        <ele>195.369992</ele>
        <time>2024-06-09T07:59:15.000Z</time>
      </trkpt>
      <trkpt lat="42.924873" lon="-85.335586">
        <ele>194.849993</ele>
        <time>2024-06-09T07:59:18.000Z</time>
      </trkpt>
      <trkpt lat="42.925036" lon="-85.335005">
        <ele>193.800007</ele>
        <time>2024-06-09T07:59:23.000Z</time>
      </trkpt>
      <trkpt lat="42.925278" lon="-85.334262">
        <ele>194.359993</ele>
        <time>2024-06-09T07:59:30.000Z</time>
      </trkpt>
      <trkpt lat="42.9255456726" lon="-85.3334293407">
        <ele>195.149995</ele>
        <time>2024-06-09T07:59:37.000Z</time>
      </trkpt>
      <trkpt lat="42.9258273393" lon="-85.332603674">
        <ele>195.810008</ele>
        <time>2024-06-09T07:59:44.000Z</time>
      </trkpt>
      <trkpt lat="42.926107" lon="-85.331778">
        <ele>195.879993</ele>
        <time>2024-06-09T07:59:51.000Z</time>
      </trkpt>
      <trkpt lat="42.926143" lon="-85.331584">
        <ele>195.78</ele>
        <time>2024-06-09T07:59:53.000Z</time>
      </trkpt>
      <trkpt lat="42.9269396666" lon="-85.3315373345">
        <ele>194.500008</ele>
        <time>2024-06-09T08:00:02.000Z</time>
      </trkpt>
      <trkpt lat="42.9277393333" lon="-85.3315056679">
        <ele>193.229998</ele>
        <time>2024-06-09T08:00:11.000Z</time>
      </trkpt>
      <trkpt lat="42.928546" lon="-85.331452">
        <ele>193.799997</ele>
        <time>2024-06-09T08:00:20.000Z</time>
      </trkpt>
      <trkpt lat="42.928741" lon="-85.331463">
        <ele>193.800002</ele>
        <time>2024-06-09T08:00:22.000Z</time>
      </trkpt>
      <trkpt lat="42.928805" lon="-85.331193">
        <ele>193.470005</ele>
        <time>2024-06-09T08:00:24.000Z</time>
      </trkpt>
      <trkpt lat="42.928874" lon="-85.331045">
        <ele>192.939997</ele>
        <time>2024-06-09T08:00:25.000Z</time>
      </trkpt>
      <trkpt lat="42.929112" lon="-85.330683">
        <ele>192.090004</ele>
        <time>2024-06-09T08:00:29.000Z</time>
      </trkpt>
      <trkpt lat="42.929209" lon="-85.330487">
        <ele>191.920004</ele>
        <time>2024-06-09T08:00:31.000Z</time>
      </trkpt>
      <trkpt lat="42.929267" lon="-85.330274">
        <ele>191.740002</ele>
        <time>2024-06-09T08:00:33.000Z</time>
      </trkpt>
      <trkpt lat="42.929281" lon="-85.330106">
        <ele>191.690005</ele>
        <time>2024-06-09T08:00:34.000Z</time>
      </trkpt>
      <trkpt lat="42.9293070289" lon="-85.3289396676">
        <ele>191.979998</ele>
        <time>2024-06-09T08:00:44.000Z</time>
      </trkpt>
      <trkpt lat="42.9293150463" lon="-85.3277843348">
        <ele>192.009992</ele>
        <time>2024-06-09T08:00:53.000Z</time>
      </trkpt>
      <trkpt lat="42.9293160521" lon="-85.3266470017">
        <ele>192.169996</ele>
        <time>2024-06-09T08:01:02.000Z</time>
      </trkpt>
      <trkpt lat="42.9293310463" lon="-85.3254956681">
        <ele>192.439995</ele>
        <time>2024-06-09T08:01:11.000Z</time>
      </trkpt>
      <trkpt lat="42.9293440289" lon="-85.3243313342">
        <ele>193.420002</ele>
        <time>2024-06-09T08:01:20.000Z</time>
      </trkpt>
      <trkpt lat="42.929342" lon="-85.323171">
        <ele>194.289999</ele>
        <time>2024-06-09T08:01:29.000Z</time>
      </trkpt>
      <trkpt lat="42.929347" lon="-85.323184">
        <ele>194.289995</ele>
        <time>2024-06-09T08:01:29.000Z</time>
      </trkpt>
      <trkpt lat="42.9293621621" lon="-85.3219760017">
        <ele>194.630001</ele>
        <time>2024-06-09T08:01:39.000Z</time>
      </trkpt>
      <trkpt lat="42.9293783114" lon="-85.3207760031">
        <ele>194.260001</ele>
        <time>2024-06-09T08:01:49.000Z</time>
      </trkpt>
      <trkpt lat="42.929382448" lon="-85.3195610039">
        <ele>194.390004</ele>
        <time>2024-06-09T08:01:59.000Z</time>
      </trkpt>
      <trkpt lat="42.9293965719" lon="-85.3183540044">
        <ele>194.570003</ele>
        <time>2024-06-09T08:02:09.000Z</time>
      </trkpt>
      <trkpt lat="42.929412683" lon="-85.3171330044">
        <ele>194.400007</ele>
        <time>2024-06-09T08:02:19.000Z</time>
      </trkpt>
      <trkpt lat="42.9294147814" lon="-85.3159340039">
        <ele>194.55</ele>
        <time>2024-06-09T08:02:29.000Z</time>
      </trkpt>
      <trkpt lat="42.929419867" lon="-85.3147290031">
        <ele>194.59</ele>
        <time>2024-06-09T08:02:39.000Z</time>
      </trkpt>
      <trkpt lat="42.9294299399" lon="-85.3135180017">
        <ele>194.509999</ele>
        <time>2024-06-09T08:02:49.000Z</time>
      </trkpt>
      <trkpt lat="42.929441" lon="-85.312291">
        <ele>195.420009</ele>
        <time>2024-06-09T08:02:59.000Z</time>
      </trkpt>
      <trkpt lat="42.929425" lon="-85.31202">
        <ele>195.420007</ele>
        <time>2024-06-09T08:03:01.000Z</time>
      </trkpt>
      <trkpt lat="42.929363" lon="-85.311714">
        <ele>195.580004</ele>
        <time>2024-06-09T08:03:04.000Z</time>
      </trkpt>
      <trkpt lat="42.929351" lon="-85.311484">
        <ele>195.589993</ele>
        <time>2024-06-09T08:03:06.000Z</time>
      </trkpt>
      <trkpt lat="42.9294180035" lon="-85.3106020008">
        <ele>195.890008</ele>
        <time>2024-06-09T08:03:13.000Z</time>
      </trkpt>
      <trkpt lat="42.929474" lon="-85.309709">
        <ele>196.160007</ele>
        <time>2024-06-09T08:03:20.000Z</time>
      </trkpt>
      <trkpt lat="42.9295910125" lon="-85.3087370052">
        <ele>196.099993</ele>
        <time>2024-06-09T08:03:28.000Z</time>
      </trkpt>
      <trkpt lat="42.9297070167" lon="-85.3077460069">
        <ele>195.929998</ele>
        <time>2024-06-09T08:03:36.000Z</time>
      </trkpt>
      <trkpt lat="42.9298140126" lon="-85.3067740051">
        <ele>195.920002</ele>
        <time>2024-06-09T08:03:44.000Z</time>
      </trkpt>
      <trkpt lat="42.929912" lon="-85.30579">
        <ele>196.010009</ele>
        <time>2024-06-09T08:03:52.000Z</time>
      </trkpt>
      <trkpt lat="42.9300053396" lon="-85.3049480024">
        <ele>196.150008</ele>
        <time>2024-06-09T08:03:59.000Z</time>
      </trkpt>
      <trkpt lat="42.930111673" lon="-85.3040880023">
        <ele>196.259992</ele>
        <time>2024-06-09T08:04:06.000Z</time>
      </trkpt>
      <trkpt lat="42.930205" lon="-85.303237">
        <ele>196.289993</ele>
        <time>2024-06-09T08:04:13.000Z</time>
      </trkpt>
      <trkpt lat="42.930211" lon="-85.302894">
        <ele>196.290006</ele>
        <time>2024-06-09T08:04:16.000Z</time>
      </trkpt>
      <trkpt lat="42.930274" lon="-85.302144">
        <ele>196.310008</ele>
        <time>2024-06-09T08:04:22.000Z</time>
      </trkpt>
      <trkpt lat="42.930281" lon="-85.301216">
        <ele>196.330007</ele>
        <time>2024-06-09T08:04:30.000Z</time>
      </trkpt>
      <trkpt lat="42.9302920033" lon="-85.3003410001">
        <ele>196.32</ele>
        <time>2024-06-09T08:04:37.000Z</time>
      </trkpt>
      <trkpt lat="42.930284" lon="-85.29948">
        <ele>196.279997</ele>
        <time>2024-06-09T08:04:44.000Z</time>
      </trkpt>
      <trkpt lat="42.930212" lon="-85.298418">
        <ele>196.149998</ele>
        <time>2024-06-09T08:04:53.000Z</time>
      </trkpt>
      <trkpt lat="42.930137" lon="-85.297635">
        <ele>196.039999</ele>
        <time>2024-06-09T08:04:59.000Z</time>
      </trkpt>
      <trkpt lat="42.9300280021" lon="-85.2969379989">
        <ele>195.919997</ele>
        <time>2024-06-09T08:05:05.000Z</time>
      </trkpt>
      <trkpt lat="42.929913" lon="-85.296246">
        <ele>195.969995</ele>
        <time>2024-06-09T08:05:11.000Z</time>
      </trkpt>
      <trkpt lat="42.9297308845" lon="-85.2952271242">
        <ele>196.050003</ele>
        <time>2024-06-09T08:05:20.000Z</time>
      </trkpt>
      <trkpt lat="42.9295417598" lon="-85.2942032547">
        <ele>196.170002</ele>
        <time>2024-06-09T08:05:29.000Z</time>
      </trkpt>
      <trkpt lat="42.9293626261" lon="-85.2931903913">
        <ele>196.179994</ele>
        <time>2024-06-09T08:05:37.000Z</time>
      </trkpt>
      <trkpt lat="42.9291724832" lon="-85.2921545342">
        <ele>196.800009</ele>
        <time>2024-06-09T08:05:46.000Z</time>
      </trkpt>
      <trkpt lat="42.9289813313" lon="-85.2911356833">
        <ele>197.070003</ele>
        <time>2024-06-09T08:05:55.000Z</time>
      </trkpt>
      <trkpt lat="42.9287891702" lon="-85.2901218386">
        <ele>197.039991</ele>
        <time>2024-06-09T08:06:04.000Z</time>
      </trkpt>
      <trkpt lat="42.928617" lon="-85.289099">
        <ele>196.639993</ele>
        <time>2024-06-09T08:06:13.000Z</time>
      </trkpt>
      <trkpt lat="42.928391" lon="-85.288098">
        <ele>196.000002</ele>
        <time>2024-06-09T08:06:22.000Z</time>
      </trkpt>
      <trkpt lat="42.9282170017" lon="-85.2874909982">
        <ele>195.799991</ele>
        <time>2024-06-09T08:06:27.000Z</time>
      </trkpt>
      <trkpt lat="42.928037" lon="-85.286866">
        <ele>195.520002</ele>
        <time>2024-06-09T08:06:32.000Z</time>
      </trkpt>
      <trkpt lat="42.9277480027" lon="-85.2860909966">
        <ele>195.200005</ele>
        <time>2024-06-09T08:06:39.000Z</time>
      </trkpt>
      <trkpt lat="42.927478" lon="-85.285292">
        <ele>195.529998</ele>
        <time>2024-06-09T08:06:46.000Z</time>
      </trkpt>
      <trkpt lat="42.927326" lon="-85.284793">
        <ele>196.470009</ele>
        <time>2024-06-09T08:06:50.000Z</time>
      </trkpt>
      <trkpt lat="42.9271260062" lon="-85.2839519946">
        <ele>196.920009</ele>
        <time>2024-06-09T08:06:57.000Z</time>
      </trkpt>
      <trkpt lat="42.9269340062" lon="-85.2831079947">
        <ele>197.079995</ele>
        <time>2024-06-09T08:07:04.000Z</time>
      </trkpt>
      <trkpt lat="42.926729" lon="-85.282274">
        <ele>196.970009</ele>
        <time>2024-06-09T08:07:11.000Z</time>
      </trkpt>
      <trkpt lat="42.9264806889" lon="-85.281267313">
        <ele>196.529994</ele>
        <time>2024-06-09T08:07:20.000Z</time>
      </trkpt>
      <trkpt lat="42.926231369" lon="-85.2802496341">
        <ele>196.600006</ele>
        <time>2024-06-09T08:07:29.000Z</time>
      </trkpt>
      <trkpt lat="42.9259780401" lon="-85.2792279633">
        <ele>197.12</ele>
        <time>2024-06-09T08:07:38.000Z</time>
      </trkpt>
      <trkpt lat="42.9257367023" lon="-85.2782253007">
        <ele>197.560008</ele>
        <time>2024-06-09T08:07:47.000Z</time>
      </trkpt>
      <trkpt lat="42.9254933556" lon="-85.2772096463">
        <ele>197.599993</ele>
        <time>2024-06-09T08:07:56.000Z</time>
      </trkpt>
      <trkpt lat="42.925234" lon="-85.276191">
        <ele>198.030006</ele>
        <time>2024-06-09T08:08:05.000Z</time>
      </trkpt>
      <trkpt lat="42.925218" lon="-85.275937">
        <ele>198.029994</ele>
        <time>2024-06-09T08:08:07.000Z</time>
      </trkpt>
      <trkpt lat="42.9252880034" lon="-85.275049001">
        <ele>198.390003</ele>
        <time>2024-06-09T08:08:14.000Z</time>
      </trkpt>
      <trkpt lat="42.925357" lon="-85.274155">
        <ele>198.739998</ele>
        <time>2024-06-09T08:08:21.000Z</time>
      </trkpt>
      <trkpt lat="42.925387" lon="-85.273505">
        <ele>198.889998</ele>
        <time>2024-06-09T08:08:26.000Z</time>
      </trkpt>
      <trkpt lat="42.925347" lon="-85.272773">
        <ele>198.959995</ele>
        <time>2024-06-09T08:08:32.000Z</time>
      </trkpt>
      <trkpt lat="42.925283" lon="-85.272265">
        <ele>198.930006</ele>
        <time>2024-06-09T08:08:36.000Z</time>
      </trkpt>
      <trkpt lat="42.9250830142" lon="-85.2712134904">
        <ele>198.910003</ele>
        <time>2024-06-09T08:08:45.000Z</time>
      </trkpt>
      <trkpt lat="42.9249080189" lon="-85.2701759872">
        <ele>198.839997</ele>
        <time>2024-06-09T08:08:54.000Z</time>
      </trkpt>
      <trkpt lat="42.9247030142" lon="-85.2691384905">
        <ele>198.630008</ele>
        <time>2024-06-09T08:09:03.000Z</time>
      </trkpt>
      <trkpt lat="42.924517" lon="-85.268089">
        <ele>198.240007</ele>
        <time>2024-06-09T08:09:12.000Z</time>
      </trkpt>
      <trkpt lat="42.924453" lon="-85.267613">
        <ele>197.900008</ele>
        <time>2024-06-09T08:09:16.000Z</time>
      </trkpt>
      <trkpt lat="42.9244100024" lon="-85.2668709994">
        <ele>196.910007</ele>
        <time>2024-06-09T08:09:22.000Z</time>
      </trkpt>
      <trkpt lat="42.924353" lon="-85.266115">
        <ele>196.349995</ele>
        <time>2024-06-09T08:09:28.000Z</time>
      </trkpt>
      <trkpt lat="42.9242860134" lon="-85.2650994973">
        <ele>196.230006</ele>
        <time>2024-06-09T08:09:36.000Z</time>
      </trkpt>
      <trkpt lat="42.9242450178" lon="-85.2640949963">
        <ele>197.159992</ele>
        <time>2024-06-09T08:09:44.000Z</time>
      </trkpt>
      <trkpt lat="42.9241920134" lon="-85.2630864972">
        <ele>198.399991</ele>
        <time>2024-06-09T08:09:52.000Z</time>
      </trkpt>
      <trkpt lat="42.924125" lon="-85.262075">
        <ele>199.240009</ele>
        <time>2024-06-09T08:10:00.000Z</time>
      </trkpt>
      <trkpt lat="42.924064675" lon="-85.2610899979">
        <ele>200.100008</ele>
        <time>2024-06-09T08:10:08.000Z</time>
      </trkpt>
      <trkpt lat="42.9239943417" lon="-85.2601179979">
        <ele>200.889991</ele>
        <time>2024-06-09T08:10:16.000Z</time>
      </trkpt>
      <trkpt lat="42.923947" lon="-85.259134">
        <ele>201.159992</ele>
        <time>2024-06-09T08:10:24.000Z</time>
      </trkpt>
      <trkpt lat="42.9239210017" lon="-85.2585119997">
        <ele>200.849993</ele>
        <time>2024-06-09T08:10:29.000Z</time>
      </trkpt>
      <trkpt lat="42.923896" lon="-85.257883">
        <ele>200.760004</ele>
        <time>2024-06-09T08:10:34.000Z</time>
      </trkpt>
      <trkpt lat="42.9238655115" lon="-85.2569489992">
        <ele>199.880001</ele>
        <time>2024-06-09T08:10:42.000Z</time>
      </trkpt>
      <trkpt lat="42.9238530154" lon="-85.2560049989">
        <ele>199.029996</ele>
        <time>2024-06-09T08:10:50.000Z</time>
      </trkpt>
      <trkpt lat="42.9238455115" lon="-85.2550569992">
        <ele>198.089993</ele>
        <time>2024-06-09T08:10:58.000Z</time>
      </trkpt>
      <trkpt lat="42.923829" lon="-85.254126">
        <ele>197.880009</ele>
        <time>2024-06-09T08:11:06.000Z</time>
      </trkpt>
      <trkpt lat="42.923823" lon="-85.252922">
        <ele>198.340008</ele>
        <time>2024-06-09T08:11:16.000Z</time>
      </trkpt>
      <trkpt lat="42.923901" lon="-85.252288">
        <ele>198.109992</ele>
        <time>2024-06-09T08:11:21.000Z</time>
      </trkpt>
      <trkpt lat="42.9240570017" lon="-85.2516770016">
        <ele>197.690004</ele>
        <time>2024-06-09T08:11:26.000Z</time>
      </trkpt>
      <trkpt lat="42.924214" lon="-85.25105">
        <ele>197.120009</ele>
        <time>2024-06-09T08:11:31.000Z</time>
      </trkpt>
      <trkpt lat="42.924293" lon="-85.250613">
        <ele>196.270009</ele>
        <time>2024-06-09T08:11:35.000Z</time>
      </trkpt>
      <trkpt lat="42.924351" lon="-85.250151">
        <ele>195.730009</ele>
        <time>2024-06-09T08:11:39.000Z</time>
      </trkpt>
      <trkpt lat="42.924341" lon="-85.249119">
        <ele>195.740008</ele>
        <time>2024-06-09T08:11:47.000Z</time>
      </trkpt>
      <trkpt lat="42.9242950148" lon="-85.248048998">
        <ele>196.569995</ele>
        <time>2024-06-09T08:11:56.000Z</time>
      </trkpt>
      <trkpt lat="42.9242680197" lon="-85.2469779973">
        <ele>197.049997</ele>
        <time>2024-06-09T08:12:05.000Z</time>
      </trkpt>
      <trkpt lat="42.9242120148" lon="-85.245920998">
        <ele>197.089994</ele>
        <time>2024-06-09T08:12:14.000Z</time>
      </trkpt>
      <trkpt lat="42.924186" lon="-85.244841">
        <ele>197.319993</ele>
        <time>2024-06-09T08:12:23.000Z</time>
      </trkpt>
      <trkpt lat="42.924125" lon="-85.243647">
        <ele>196.920009</ele>
        <time>2024-06-09T08:12:33.000Z</time>
      </trkpt>
      <trkpt lat="42.9240726757" lon="-85.2426119982">
        <ele>196.68</ele>
        <time>2024-06-09T08:12:41.000Z</time>
      </trkpt>
      <trkpt lat="42.9240183424" lon="-85.2415979982">
        <ele>196.090001</ele>
        <time>2024-06-09T08:12:49.000Z</time>
      </trkpt>
      <trkpt lat="42.923972" lon="-85.24058">
        <ele>195.840006</ele>
        <time>2024-06-09T08:12:57.000Z</time>
      </trkpt>
      <trkpt lat="42.9239570041" lon="-85.239605">
        <ele>195.520009</ele>
        <time>2024-06-09T08:13:05.000Z</time>
      </trkpt>
      <trkpt lat="42.923947" lon="-85.238636">
        <ele>195.520005</ele>
        <time>2024-06-09T08:13:13.000Z</time>
      </trkpt>
      <trkpt lat="42.923963" lon="-85.238038">
        <ele>195.730004</ele>
        <time>2024-06-09T08:13:18.000Z</time>
      </trkpt>
      <trkpt lat="42.924036" lon="-85.237024">
        <ele>196.26</ele>
        <time>2024-06-09T08:13:26.000Z</time>
      </trkpt>
      <trkpt lat="42.9241210026" lon="-85.2362500013">
        <ele>195.930001</ele>
        <time>2024-06-09T08:13:32.000Z</time>
      </trkpt>
      <trkpt lat="42.924238" lon="-85.235464">
        <ele>195.759997</ele>
        <time>2024-06-09T08:13:39.000Z</time>
      </trkpt>
      <trkpt lat="42.924285" lon="-85.234779">
        <ele>195.6</ele>
        <time>2024-06-09T08:13:45.000Z</time>
      </trkpt>
      <trkpt lat="42.9243470036" lon="-85.2338610011">
        <ele>195.630005</ele>
        <time>2024-06-09T08:13:53.000Z</time>
      </trkpt>
      <trkpt lat="42.924395" lon="-85.232953">
        <ele>196.06</ele>
        <time>2024-06-09T08:14:00.000Z</time>
      </trkpt>
      <trkpt lat="42.9244460049" lon="-85.2318950008">
        <ele>197.010009</ele>
        <time>2024-06-09T08:14:09.000Z</time>
      </trkpt>
      <trkpt lat="42.924487" lon="-85.230833">
        <ele>197.870007</ele>
        <time>2024-06-09T08:14:18.000Z</time>
      </trkpt>
      <trkpt lat="42.924549" lon="-85.230496">
        <ele>198.239994</ele>
        <time>2024-06-09T08:14:21.000Z</time>
      </trkpt>
      <trkpt lat="42.9248460389" lon="-85.2294393745">
        <ele>198.830005</ele>
        <time>2024-06-09T08:14:30.000Z</time>
      </trkpt>
      <trkpt lat="42.925140068" lon="-85.2283957387">
        <ele>199.519992</ele>
        <time>2024-06-09T08:14:39.000Z</time>
      </trkpt>
      <trkpt lat="42.9254420875" lon="-85.2273280927">
        <ele>200.1</ele>
        <time>2024-06-09T08:14:48.000Z</time>
      </trkpt>
      <trkpt lat="42.9257380972" lon="-85.2262674363">
        <ele>200.239996</ele>
        <time>2024-06-09T08:14:57.000Z</time>
      </trkpt>
      <trkpt lat="42.9260460972" lon="-85.2252127696">
        <ele>201.039996</ele>
        <time>2024-06-09T08:15:06.000Z</time>
      </trkpt>
      <trkpt lat="42.9263480875" lon="-85.2241630927">
        <ele>201.750001</ele>
        <time>2024-06-09T08:15:15.000Z</time>
      </trkpt>
      <trkpt lat="42.926642068" lon="-85.2230974054">
        <ele>203.549999</ele>
        <time>2024-06-09T08:15:24.000Z</time>
      </trkpt>
      <trkpt lat="42.9269310389" lon="-85.2220547079">
        <ele>204.229998</ele>
        <time>2024-06-09T08:15:33.000Z</time>
      </trkpt>
      <trkpt lat="42.927247" lon="-85.220998">
        <ele>204.189995</ele>
        <time>2024-06-09T08:15:42.000Z</time>
      </trkpt>
      <trkpt lat="42.927308" lon="-85.220704">
        <ele>204.199991</ele>
        <time>2024-06-09T08:15:44.000Z</time>
      </trkpt>
      <trkpt lat="42.927419" lon="-85.220066">
        <ele>204.299995</ele>
        <time>2024-06-09T08:15:49.000Z</time>
      </trkpt>
      <trkpt lat="42.9275050036" lon="-85.2191520015">
        <ele>204.130008</ele>
        <time>2024-06-09T08:15:57.000Z</time>
      </trkpt>
      <trkpt lat="42.927603" lon="-85.218245">
        <ele>204.529997</ele>
        <time>2024-06-09T08:16:04.000Z</time>
      </trkpt>
      <trkpt lat="42.9282403333" lon="-85.2182370002">
        <ele>202.610008</ele>
        <time>2024-06-09T08:16:11.000Z</time>
      </trkpt>
      <trkpt lat="42.9288816667" lon="-85.2182290002">
        <ele>200.899994</ele>
        <time>2024-06-09T08:16:18.000Z</time>
      </trkpt>
      <trkpt lat="42.929533" lon="-85.218212">
        <ele>198.150003</ele>
        <time>2024-06-09T08:16:25.000Z</time>
      </trkpt>
      <trkpt lat="42.9295150101" lon="-85.217139333">
        <ele>197.430002</ele>
        <time>2024-06-09T08:16:34.000Z</time>
      </trkpt>
      <trkpt lat="42.9295020101" lon="-85.2160546664">
        <ele>196.900002</ele>
        <time>2024-06-09T08:16:43.000Z</time>
      </trkpt>
      <trkpt lat="42.929505" lon="-85.214978">
        <ele>195.500002</ele>
        <time>2024-06-09T08:16:52.000Z</time>
      </trkpt>
      <trkpt lat="42.929509" lon="-85.215008">
        <ele>195.520001</ele>
        <time>2024-06-09T08:16:52.000Z</time>
      </trkpt>
      <trkpt lat="42.9294870032" lon="-85.214143">
        <ele>195.170003</ele>
        <time>2024-06-09T08:16:59.000Z</time>
      </trkpt>
      <trkpt lat="42.929493" lon="-85.213273">
        <ele>196.390002</ele>
        <time>2024-06-09T08:17:06.000Z</time>
      </trkpt>
      <trkpt lat="42.9295143394" lon="-85.2124433339">
        <ele>196.750002</ele>
        <time>2024-06-09T08:17:13.000Z</time>
      </trkpt>
      <trkpt lat="42.9295416728" lon="-85.2116146673">
        <ele>197.880005</ele>
        <time>2024-06-09T08:17:20.000Z</time>
      </trkpt>
      <trkpt lat="42.929566" lon="-85.210769">
        <ele>199.610009</ele>
        <time>2024-06-09T08:17:27.000Z</time>
      </trkpt>
      <trkpt lat="42.9295860063" lon="-85.2095570006">
        <ele>200.679999</ele>
        <time>2024-06-09T08:17:37.000Z</time>
      </trkpt>
      <trkpt lat="42.929621" lon="-85.208358">
        <ele>203.489994</ele>
        <time>2024-06-09T08:17:47.000Z</time>
      </trkpt>
      <trkpt lat="42.9296173405" lon="-85.2074500001">
        <ele>204.679993</ele>
        <time>2024-06-09T08:17:54.000Z</time>
      </trkpt>
      <trkpt lat="42.9296286739" lon="-85.2065430001">
        <ele>205.190007</ele>
        <time>2024-06-09T08:18:01.000Z</time>
      </trkpt>
      <trkpt lat="42.929636" lon="-85.205622">
        <ele>206.300008</ele>
        <time>2024-06-09T08:18:08.000Z</time>
      </trkpt>
      <trkpt lat="42.9296740053" lon="-85.2045260007">
        <ele>206.040005</ele>
        <time>2024-06-09T08:18:17.000Z</time>
      </trkpt>
      <trkpt lat="42.929713" lon="-85.203436">
        <ele>207.069991</ele>
        <time>2024-06-09T08:18:26.000Z</time>
      </trkpt>
      <trkpt lat="42.929728677" lon="-85.202334001">
        <ele>207.889995</ele>
        <time>2024-06-09T08:18:35.000Z</time>
      </trkpt>
      <trkpt lat="42.9297653437" lon="-85.2012500011">
        <ele>208.620005</ele>
        <time>2024-06-09T08:18:44.000Z</time>
      </trkpt>
      <trkpt lat="42.929794" lon="-85.200152">
        <ele>210.000007</ele>
        <time>2024-06-09T08:18:53.000Z</time>
      </trkpt>
      <trkpt lat="42.9298080034" lon="-85.1992700003">
        <ele>211.159994</ele>
        <time>2024-06-09T08:19:00.000Z</time>
      </trkpt>
      <trkpt lat="42.929816" lon="-85.198382">
        <ele>212.959993</ele>
        <time>2024-06-09T08:19:07.000Z</time>
      </trkpt>
      <trkpt lat="42.92985" lon="-85.197228">
        <ele>213.319993</ele>
        <time>2024-06-09T08:19:16.000Z</time>
      </trkpt>
      <trkpt lat="42.9298690065" lon="-85.1959890004">
        <ele>215.130004</ele>
        <time>2024-06-09T08:19:26.000Z</time>
      </trkpt>
      <trkpt lat="42.929891" lon="-85.194772">
        <ele>216.520005</ele>
        <time>2024-06-09T08:19:36.000Z</time>
      </trkpt>
      <trkpt lat="42.929892" lon="-85.194298">
        <ele>217.540009</ele>
        <time>2024-06-09T08:19:40.000Z</time>
      </trkpt>
      <trkpt lat="42.929704" lon="-85.193289">
        <ele>220.349992</ele>
        <time>2024-06-09T08:19:48.000Z</time>
      </trkpt>
      <trkpt lat="42.929654" lon="-85.192748">
        <ele>222.970001</ele>
        <time>2024-06-09T08:19:52.000Z</time>
      </trkpt>
      <trkpt lat="42.929643" lon="-85.191773">
        <ele>225.569998</ele>
        <time>2024-06-09T08:20:00.000Z</time>
      </trkpt>
      <trkpt lat="42.929643" lon="-85.191796">
        <ele>225.549996</ele>
        <time>2024-06-09T08:20:00.000Z</time>
      </trkpt>
      <trkpt lat="42.9296404597" lon="-85.1905817682">
        <ele>224.960003</ele>
        <time>2024-06-09T08:20:10.000Z</time>
      </trkpt>
      <trkpt lat="42.9296329069" lon="-85.1893845365">
        <ele>220.599994</ele>
        <time>2024-06-09T08:20:20.000Z</time>
      </trkpt>
      <trkpt lat="42.9296353416" lon="-85.188193305">
        <ele>219.109997</ele>
        <time>2024-06-09T08:20:30.000Z</time>
      </trkpt>
      <trkpt lat="42.9296297638" lon="-85.1869950737">
        <ele>219.030002</ele>
        <time>2024-06-09T08:20:40.000Z</time>
      </trkpt>
      <trkpt lat="42.9296191734" lon="-85.1857938426">
        <ele>216.209994</ele>
        <time>2024-06-09T08:20:50.000Z</time>
      </trkpt>
      <trkpt lat="42.9296045706" lon="-85.1845906116">
        <ele>213.120003</ele>
        <time>2024-06-09T08:21:00.000Z</time>
      </trkpt>
      <trkpt lat="42.9296109552" lon="-85.1833933809">
        <ele>211.520003</ele>
        <time>2024-06-09T08:21:10.000Z</time>
      </trkpt>
      <trkpt lat="42.9296103273" lon="-85.1821871503">
        <ele>210.530002</ele>
        <time>2024-06-09T08:21:20.000Z</time>
      </trkpt>
      <trkpt lat="42.9295996869" lon="-85.1810029199">
        <ele>210.190002</ele>
        <time>2024-06-09T08:21:30.000Z</time>
      </trkpt>
      <trkpt lat="42.9295870339" lon="-85.1797936896">
        <ele>213.430009</ele>
        <time>2024-06-09T08:21:40.000Z</time>
      </trkpt>
      <trkpt lat="42.9295823685" lon="-85.1785974596">
        <ele>220.089996</ele>
        <time>2024-06-09T08:21:50.000Z</time>
      </trkpt>
      <trkpt lat="42.9295806905" lon="-85.1774042297">
        <ele>224.590003</ele>
        <time>2024-06-09T08:22:00.000Z</time>
      </trkpt>
      <trkpt lat="42.929572" lon="-85.176206">
        <ele>229.700003</ele>
        <time>2024-06-09T08:22:10.000Z</time>
      </trkpt>
      <trkpt lat="42.9295770143" lon="-85.1751495">
        <ele>231.210004</ele>
        <time>2024-06-09T08:22:19.000Z</time>
      </trkpt>
      <trkpt lat="42.9295760191" lon="-85.174107">
        <ele>232.480004</ele>
        <time>2024-06-09T08:22:27.000Z</time>
      </trkpt>
      <trkpt lat="42.9295860143" lon="-85.1730485">
        <ele>233.849999</ele>
        <time>2024-06-09T08:22:36.000Z</time>
      </trkpt>
      <trkpt lat="42.929574" lon="-85.172016">
        <ele>233.800008</ele>
        <time>2024-06-09T08:22:44.000Z</time>
      </trkpt>
      <trkpt lat="42.9295840024" lon="-85.1712710001">
        <ele>230.030004</ele>
        <time>2024-06-09T08:22:50.000Z</time>
      </trkpt>
      <trkpt lat="42.929595" lon="-85.170548">
        <ele>225.959993</ele>
        <time>2024-06-09T08:22:56.000Z</time>
      </trkpt>
      <trkpt lat="42.9296074614" lon="-85.1693331442">
        <ele>220.690007</ele>
        <time>2024-06-09T08:23:06.000Z</time>
      </trkpt>
      <trkpt lat="42.9296069099" lon="-85.1681212882">
        <ele>221.200009</ele>
        <time>2024-06-09T08:23:16.000Z</time>
      </trkpt>
      <trkpt lat="42.9296053457" lon="-85.1669004321">
        <ele>222.849998</ele>
        <time>2024-06-09T08:23:26.000Z</time>
      </trkpt>
      <trkpt lat="42.9296207687" lon="-85.1656945759">
        <ele>227.369998</ele>
        <time>2024-06-09T08:23:36.000Z</time>
      </trkpt>
      <trkpt lat="42.9296261788" lon="-85.1644827196">
        <ele>235.589999</ele>
        <time>2024-06-09T08:23:46.000Z</time>
      </trkpt>
      <trkpt lat="42.9296195762" lon="-85.1632568631">
        <ele>238.149993</ele>
        <time>2024-06-09T08:23:56.000Z</time>
      </trkpt>
      <trkpt lat="42.9296319607" lon="-85.1620510065">
        <ele>235.869993</ele>
        <time>2024-06-09T08:24:06.000Z</time>
      </trkpt>
      <trkpt lat="42.9296343325" lon="-85.1608331497">
        <ele>231.300004</ele>
        <time>2024-06-09T08:24:16.000Z</time>
      </trkpt>
      <trkpt lat="42.9296246914" lon="-85.1596272928">
        <ele>229.210009</ele>
        <time>2024-06-09T08:24:26.000Z</time>
      </trkpt>
      <trkpt lat="42.9296370375" lon="-85.1584114358">
        <ele>229.449997</ele>
        <time>2024-06-09T08:24:36.000Z</time>
      </trkpt>
      <trkpt lat="42.9296413709" lon="-85.1572075786">
        <ele>231.699991</ele>
        <time>2024-06-09T08:24:46.000Z</time>
      </trkpt>
      <trkpt lat="42.9296426914" lon="-85.1559937214">
        <ele>235.239994</ele>
        <time>2024-06-09T08:24:56.000Z</time>
      </trkpt>
      <trkpt lat="42.9296469991" lon="-85.1547798639">
        <ele>241.919999</ele>
        <time>2024-06-09T08:25:06.000Z</time>
      </trkpt>
      <trkpt lat="42.929640294" lon="-85.1535530064">
        <ele>244.579998</ele>
        <time>2024-06-09T08:25:16.000Z</time>
      </trkpt>
      <trkpt lat="42.9296465762" lon="-85.1523401487">
        <ele>244.579995</ele>
        <time>2024-06-09T08:25:26.000Z</time>
      </trkpt>
      <trkpt lat="42.9296468455" lon="-85.1511282909">
        <ele>244.969994</ele>
        <time>2024-06-09T08:25:36.000Z</time>
      </trkpt>
      <trkpt lat="42.929650102" lon="-85.149921433">
        <ele>245.049997</ele>
        <time>2024-06-09T08:25:46.000Z</time>
      </trkpt>
      <trkpt lat="42.9296523457" lon="-85.1486995749">
        <ele>245.090007</ele>
        <time>2024-06-09T08:25:56.000Z</time>
      </trkpt>
      <trkpt lat="42.9296555766" lon="-85.1474947167">
        <ele>244.519995</ele>
        <time>2024-06-09T08:26:06.000Z</time>
      </trkpt>
      <trkpt lat="42.9296707947" lon="-85.1462878584">
        <ele>243.199998</ele>
        <time>2024-06-09T08:26:16.000Z</time>
      </trkpt>
      <trkpt lat="42.929664" lon="-85.145069">
        <ele>242.910005</ele>
        <time>2024-06-09T08:26:26.000Z</time>
      </trkpt>
      <trkpt lat="42.9296767116" lon="-85.1439414454">
        <ele>243.939997</ele>
        <time>2024-06-09T08:26:35.000Z</time>
      </trkpt>
      <trkpt lat="42.9296864119" lon="-85.1427908906">
        <ele>244.270006</ele>
        <time>2024-06-09T08:26:44.000Z</time>
      </trkpt>
      <trkpt lat="42.929686101" lon="-85.1416713355">
        <ele>244.189992</ele>
        <time>2024-06-09T08:26:53.000Z</time>
      </trkpt>
      <trkpt lat="42.9296977789" lon="-85.1405307802">
        <ele>243.909996</ele>
        <time>2024-06-09T08:27:02.000Z</time>
      </trkpt>
      <trkpt lat="42.9296974456" lon="-85.1394012247">
        <ele>243.110005</ele>
        <time>2024-06-09T08:27:11.000Z</time>
      </trkpt>
      <trkpt lat="42.929715101" lon="-85.1382626689">
        <ele>241.490002</ele>
        <time>2024-06-09T08:27:20.000Z</time>
      </trkpt>
      <trkpt lat="42.9297157452" lon="-85.1371141128">
        <ele>238.420002</ele>
        <time>2024-06-09T08:27:29.000Z</time>
      </trkpt>
      <trkpt lat="42.9297223782" lon="-85.1359875565">
        <ele>233.890006</ele>
        <time>2024-06-09T08:27:38.000Z</time>
      </trkpt>
      <trkpt lat="42.929739" lon="-85.134852">
        <ele>231.609999</ele>
        <time>2024-06-09T08:27:47.000Z</time>
      </trkpt>
      <trkpt lat="42.929716" lon="-85.134092">
        <ele>233.329992</ele>
        <time>2024-06-09T08:27:53.000Z</time>
      </trkpt>
      <trkpt lat="42.929099" lon="-85.134103">
        <ele>233.599991</ele>
        <time>2024-06-09T08:28:00.000Z</time>
      </trkpt>
      <trkpt lat="42.929102" lon="-85.134099">
        <ele>233.600008</ele>
        <time>2024-06-09T08:28:00.000Z</time>
      </trkpt>
      <trkpt lat="42.9282476" lon="-85.1340980007">
        <ele>238.280005</ele>
        <time>2024-06-09T08:28:10.000Z</time>
      </trkpt>
      <trkpt lat="42.9273732" lon="-85.1341030013">
        <ele>241.29</ele>
        <time>2024-06-09T08:28:20.000Z</time>
      </trkpt>
      <trkpt lat="42.9265258" lon="-85.1341080019">
        <ele>243.249996</ele>
        <time>2024-06-09T08:28:29.000Z</time>
      </trkpt>
      <trkpt lat="42.9256524" lon="-85.1341050024">
        <ele>245.670008</ele>
        <time>2024-06-09T08:28:39.000Z</time>
      </trkpt>
      <trkpt lat="42.924796" lon="-85.1341060028">
        <ele>247.100001</ele>
        <time>2024-06-09T08:28:49.000Z</time>
      </trkpt>
      <trkpt lat="42.9239176" lon="-85.1341040032">
        <ele>246.559998</ele>
        <time>2024-06-09T08:28:59.000Z</time>
      </trkpt>
      <trkpt lat="42.9230672" lon="-85.1341220035">
        <ele>245.63</ele>
        <time>2024-06-09T08:29:08.000Z</time>
      </trkpt>
      <trkpt lat="42.9221958" lon="-85.1341100038">
        <ele>245.309995</ele>
        <time>2024-06-09T08:29:18.000Z</time>
      </trkpt>
      <trkpt lat="42.9213284" lon="-85.134127004">
        <ele>245.279998</ele>
        <time>2024-06-09T08:29:28.000Z</time>
      </trkpt>
      <trkpt lat="42.920465" lon="-85.1341160042">
        <ele>245.540003</ele>
        <time>2024-06-09T08:29:38.000Z</time>
      </trkpt>
      <trkpt lat="42.9196106" lon="-85.1341290043">
        <ele>246.279993</ele>
        <time>2024-06-09T08:29:48.000Z</time>
      </trkpt>
      <trkpt lat="42.9187292" lon="-85.1341310044">
        <ele>246.890006</ele>
        <time>2024-06-09T08:29:58.000Z</time>
      </trkpt>
      <trkpt lat="42.9178818" lon="-85.1341170044">
        <ele>247.379998</ele>
        <time>2024-06-09T08:30:07.000Z</time>
      </trkpt>
      <trkpt lat="42.9170044" lon="-85.1341290043">
        <ele>248.269997</ele>
        <time>2024-06-09T08:30:17.000Z</time>
      </trkpt>
      <trkpt lat="42.916139" lon="-85.1341330042">
        <ele>249.720001</ele>
        <time>2024-06-09T08:30:27.000Z</time>
      </trkpt>
      <trkpt lat="42.9152886" lon="-85.134125004">
        <ele>251.579992</ele>
        <time>2024-06-09T08:30:36.000Z</time>
      </trkpt>
      <trkpt lat="42.9144232" lon="-85.1341370038">
        <ele>251.849996</ele>
        <time>2024-06-09T08:30:46.000Z</time>
      </trkpt>
      <trkpt lat="42.9135418" lon="-85.1341400035">
        <ele>250.859991</ele>
        <time>2024-06-09T08:30:56.000Z</time>
      </trkpt>
      <trkpt lat="42.9126844" lon="-85.1341360032">
        <ele>250.26</ele>
        <time>2024-06-09T08:31:06.000Z</time>
      </trkpt>
      <trkpt lat="42.911822" lon="-85.1341490028">
        <ele>250.560003</ele>
        <time>2024-06-09T08:31:16.000Z</time>
      </trkpt>
      <trkpt lat="42.9109546" lon="-85.1341460024">
        <ele>250.909996</ele>
        <time>2024-06-09T08:31:26.000Z</time>
      </trkpt>
      <trkpt lat="42.9101022" lon="-85.1341350019">
        <ele>251.429994</ele>
        <time>2024-06-09T08:31:35.000Z</time>
      </trkpt>
      <trkpt lat="42.9092288" lon="-85.1341550013">
        <ele>252.479993</ele>
        <time>2024-06-09T08:31:45.000Z</time>
      </trkpt>
      <trkpt lat="42.9083574" lon="-85.1341430007">
        <ele>253.880001</ele>
        <time>2024-06-09T08:31:55.000Z</time>
      </trkpt>
      <trkpt lat="42.907501" lon="-85.134154">
        <ele>254.469992</ele>
        <time>2024-06-09T08:32:05.000Z</time>
      </trkpt>
      <trkpt lat="42.9066403636" lon="-85.13415">
        <ele>255.109991</ele>
        <time>2024-06-09T08:32:15.000Z</time>
      </trkpt>
      <trkpt lat="42.9057657273" lon="-85.134154">
        <ele>255.329998</ele>
        <time>2024-06-09T08:32:25.000Z</time>
      </trkpt>
      <trkpt lat="42.9049040909" lon="-85.134157">
        <ele>255.890005</ele>
        <time>2024-06-09T08:32:35.000Z</time>
      </trkpt>
      <trkpt lat="42.9040404545" lon="-85.134142">
        <ele>256.240007</ele>
        <time>2024-06-09T08:32:45.000Z</time>
      </trkpt>
      <trkpt lat="42.9031888182" lon="-85.134157">
        <ele>256.290005</ele>
        <time>2024-06-09T08:32:54.000Z</time>
      </trkpt>
      <trkpt lat="42.9023181818" lon="-85.134145">
        <ele>256.589992</ele>
        <time>2024-06-09T08:33:04.000Z</time>
      </trkpt>
      <trkpt lat="42.9014465454" lon="-85.134153">
        <ele>256.919997</ele>
        <time>2024-06-09T08:33:14.000Z</time>
      </trkpt>
      <trkpt lat="42.9005869091" lon="-85.134157">
        <ele>257.509999</ele>
        <time>2024-06-09T08:33:24.000Z</time>
      </trkpt>
      <trkpt lat="42.8997312727" lon="-85.134145">
        <ele>257.080003</ele>
        <time>2024-06-09T08:33:34.000Z</time>
      </trkpt>
      <trkpt lat="42.8988566363" lon="-85.134154">
        <ele>256.330008</ele>
        <time>2024-06-09T08:33:44.000Z</time>
      </trkpt>
      <trkpt lat="42.897999" lon="-85.134149">
        <ele>255.909993</ele>
        <time>2024-06-09T08:33:54.000Z</time>
      </trkpt>
      <trkpt lat="42.897244" lon="-85.1341630003">
        <ele>255.409995</ele>
        <time>2024-06-09T08:34:02.000Z</time>
      </trkpt>
      <trkpt lat="42.896506" lon="-85.1341640004">
        <ele>255.509993</ele>
        <time>2024-06-09T08:34:10.000Z</time>
      </trkpt>
      <trkpt lat="42.895751" lon="-85.1341750004">
        <ele>256.340002</ele>
        <time>2024-06-09T08:34:18.000Z</time>
      </trkpt>
      <trkpt lat="42.895004" lon="-85.1341780003">
        <ele>257.589998</ele>
        <time>2024-06-09T08:34:26.000Z</time>
      </trkpt>
      <trkpt lat="42.894265" lon="-85.134171">
        <ele>259.309991</ele>
        <time>2024-06-09T08:34:34.000Z</time>
      </trkpt>
      <trkpt lat="42.8933973334" lon="-85.1341636663">
        <ele>260.979998</ele>
        <time>2024-06-09T08:34:44.000Z</time>
      </trkpt>
      <trkpt lat="42.8925546667" lon="-85.134157333">
        <ele>262.019992</ele>
        <time>2024-06-09T08:34:53.000Z</time>
      </trkpt>
      <trkpt lat="42.891694" lon="-85.134138">
        <ele>261.199993</ele>
        <time>2024-06-09T08:35:03.000Z</time>
      </trkpt>
      <trkpt lat="42.8909044286" lon="-85.134135">
        <ele>260.790009</ele>
        <time>2024-06-09T08:35:12.000Z</time>
      </trkpt>
      <trkpt lat="42.8901078572" lon="-85.134145">
        <ele>260.740007</ele>
        <time>2024-06-09T08:35:21.000Z</time>
      </trkpt>
      <trkpt lat="42.8893152857" lon="-85.134142">
        <ele>260.799999</ele>
        <time>2024-06-09T08:35:30.000Z</time>
      </trkpt>
      <trkpt lat="42.8885437143" lon="-85.134133">
        <ele>260.720009</ele>
        <time>2024-06-09T08:35:39.000Z</time>
      </trkpt>
      <trkpt lat="42.8877501429" lon="-85.134146">
        <ele>260.680002</ele>
        <time>2024-06-09T08:35:48.000Z</time>
      </trkpt>
      <trkpt lat="42.8869525715" lon="-85.134142">
        <ele>261.050007</ele>
        <time>2024-06-09T08:35:57.000Z</time>
      </trkpt>
      <trkpt lat="42.886169" lon="-85.134133">
        <ele>261.739993</ele>
        <time>2024-06-09T08:36:06.000Z</time>
      </trkpt>
      <trkpt lat="42.885272" lon="-85.134143445">
        <ele>261.610003</ele>
        <time>2024-06-09T08:36:16.000Z</time>
      </trkpt>
      <trkpt lat="42.884381" lon="-85.1341468898">
        <ele>261.750005</ele>
        <time>2024-06-09T08:36:26.000Z</time>
      </trkpt>
      <trkpt lat="42.883492" lon="-85.1341563345">
        <ele>261.859998</ele>
        <time>2024-06-09T08:36:36.000Z</time>
      </trkpt>
      <trkpt lat="42.882615" lon="-85.1341627791">
        <ele>262.389993</ele>
        <time>2024-06-09T08:36:46.000Z</time>
      </trkpt>
      <trkpt lat="42.88172" lon="-85.1341592235">
        <ele>261.579999</ele>
        <time>2024-06-09T08:36:56.000Z</time>
      </trkpt>
      <trkpt lat="42.880829" lon="-85.1341686678">
        <ele>262.189992</ele>
        <time>2024-06-09T08:37:06.000Z</time>
      </trkpt>
      <trkpt lat="42.879944" lon="-85.134166112">
        <ele>264.339993</ele>
        <time>2024-06-09T08:37:16.000Z</time>
      </trkpt>
      <trkpt lat="42.879044" lon="-85.1341685561">
        <ele>264.090001</ele>
        <time>2024-06-09T08:37:26.000Z</time>
      </trkpt>
      <trkpt lat="42.878151" lon="-85.134176">
        <ele>261.289996</ele>
        <time>2024-06-09T08:37:36.000Z</time>
      </trkpt>
      <trkpt lat="42.8772612857" lon="-85.1341877144">
        <ele>258.019999</ele>
        <time>2024-06-09T08:37:46.000Z</time>
      </trkpt>
      <trkpt lat="42.8763735714" lon="-85.1341764288">
        <ele>257.639995</ele>
        <time>2024-06-09T08:37:56.000Z</time>
      </trkpt>
      <trkpt lat="42.8754868571" lon="-85.1341771432">
        <ele>257.900004</ele>
        <time>2024-06-09T08:38:06.000Z</time>
      </trkpt>
      <trkpt lat="42.8746041429" lon="-85.1341888576">
        <ele>258.629996</ele>
        <time>2024-06-09T08:38:16.000Z</time>
      </trkpt>
      <trkpt lat="42.8736984286" lon="-85.1341745719">
        <ele>259.119993</ele>
        <time>2024-06-09T08:38:26.000Z</time>
      </trkpt>
      <trkpt lat="42.8728167143" lon="-85.1341932862">
        <ele>259.270001</ele>
        <time>2024-06-09T08:38:36.000Z</time>
      </trkpt>
      <trkpt lat="42.871928" lon="-85.1341920005">
        <ele>259.619997</ele>
        <time>2024-06-09T08:38:46.000Z</time>
      </trkpt>
      <trkpt lat="42.8710352857" lon="-85.1341857148">
        <ele>259.409993</ele>
        <time>2024-06-09T08:38:56.000Z</time>
      </trkpt>
      <trkpt lat="42.8701505714" lon="-85.134188429">
        <ele>259.540003</ele>
        <time>2024-06-09T08:39:06.000Z</time>
      </trkpt>
      <trkpt lat="42.8692508571" lon="-85.1341901433">
        <ele>260.479993</ele>
        <time>2024-06-09T08:39:16.000Z</time>
      </trkpt>
      <trkpt lat="42.8683701429" lon="-85.1341888575">
        <ele>262.419992</ele>
        <time>2024-06-09T08:39:26.000Z</time>
      </trkpt>
      <trkpt lat="42.8674754286" lon="-85.1341845717">
        <ele>263.899998</ele>
        <time>2024-06-09T08:39:36.000Z</time>
      </trkpt>
      <trkpt lat="42.8665827143" lon="-85.1341812858">
        <ele>264.430008</ele>
        <time>2024-06-09T08:39:46.000Z</time>
      </trkpt>
      <trkpt lat="42.865683" lon="-85.13419">
        <ele>264.419998</ele>
        <time>2024-06-09T08:39:56.000Z</time>
      </trkpt>
      <trkpt lat="42.8649112857" lon="-85.1341877147">
        <ele>264.029998</ele>
        <time>2024-06-09T08:40:05.000Z</time>
      </trkpt>
      <trkpt lat="42.8641355715" lon="-85.1342024293">
        <ele>263.930003</ele>
        <time>2024-06-09T08:40:14.000Z</time>
      </trkpt>
      <trkpt lat="42.8633578572" lon="-85.1341991437">
        <ele>263.95</ele>
        <time>2024-06-09T08:40:23.000Z</time>
      </trkpt>
      <trkpt lat="42.8625921429" lon="-85.134214858">
        <ele>263.859999</ele>
        <time>2024-06-09T08:40:32.000Z</time>
      </trkpt>
      <trkpt lat="42.8618074286" lon="-85.1342165721">
        <ele>263.600006</ele>
        <time>2024-06-09T08:40:41.000Z</time>
      </trkpt>
      <trkpt lat="42.8610407144" lon="-85.1342172861">
        <ele>263.350008</ele>
        <time>2024-06-09T08:40:50.000Z</time>
      </trkpt>
      <trkpt lat="42.860269" lon="-85.134228">
        <ele>263.219999</ele>
        <time>2024-06-09T08:40:59.000Z</time>
      </trkpt>
      <trkpt lat="42.8594409999" lon="-85.1342750006">
        <ele>263.449996</ele>
        <time>2024-06-09T08:41:08.000Z</time>
      </trkpt>
      <trkpt lat="42.858628" lon="-85.13432">
        <ele>263.449992</ele>
        <time>2024-06-09T08:41:17.000Z</time>
      </trkpt>
      <trkpt lat="42.8578680001" lon="-85.1342209988">
        <ele>263.68</ele>
        <time>2024-06-09T08:41:25.000Z</time>
      </trkpt>
      <trkpt lat="42.857103" lon="-85.134131">
        <ele>263.910001</ele>
        <time>2024-06-09T08:41:34.000Z</time>
      </trkpt>
      <trkpt lat="42.856626" lon="-85.1340979998">
        <ele>264.299997</ele>
        <time>2024-06-09T08:41:39.000Z</time>
      </trkpt>
      <trkpt lat="42.856141" lon="-85.134073">
        <ele>264.860007</ele>
        <time>2024-06-09T08:41:44.000Z</time>
      </trkpt>
      <trkpt lat="42.8552723334" lon="-85.134040666">
        <ele>266.580002</ele>
        <time>2024-06-09T08:41:54.000Z</time>
      </trkpt>
      <trkpt lat="42.8544056668" lon="-85.1340243327">
        <ele>267.210001</ele>
        <time>2024-06-09T08:42:04.000Z</time>
      </trkpt>
      <trkpt lat="42.853545" lon="-85.133994">
        <ele>266.329996</ele>
        <time>2024-06-09T08:42:14.000Z</time>
      </trkpt>
      <trkpt lat="42.852885" lon="-85.1339993334">
        <ele>265.229998</ele>
        <time>2024-06-09T08:42:21.000Z</time>
      </trkpt>
      <trkpt lat="42.852247" lon="-85.1340066667">
        <ele>263.579998</ele>
        <time>2024-06-09T08:42:28.000Z</time>
      </trkpt>
      <trkpt lat="42.851583" lon="-85.134001">
        <ele>263.029999</ele>
        <time>2024-06-09T08:42:35.000Z</time>
      </trkpt>
      <trkpt lat="42.8510409998" lon="-85.134">
        <ele>262.620002</ele>
        <time>2024-06-09T08:42:41.000Z</time>
      </trkpt>
      <trkpt lat="42.850473" lon="-85.134001">
        <ele>262.389992</ele>
        <time>2024-06-09T08:42:47.000Z</time>
      </trkpt>
      <trkpt lat="42.850151" lon="-85.133961">
        <ele>261.809994</ele>
        <time>2024-06-09T08:42:51.000Z</time>
      </trkpt>
      <trkpt lat="42.849274" lon="-85.1339559994">
        <ele>260.310002</ele>
        <time>2024-06-09T08:43:01.000Z</time>
      </trkpt>
      <trkpt lat="42.8484039999" lon="-85.1339349992">
        <ele>258.389993</ele>
        <time>2024-06-09T08:43:11.000Z</time>
      </trkpt>
      <trkpt lat="42.8475439999" lon="-85.1339229994">
        <ele>258.58</ele>
        <time>2024-06-09T08:43:21.000Z</time>
      </trkpt>
      <trkpt lat="42.846677" lon="-85.133908">
        <ele>259.120008</ele>
        <time>2024-06-09T08:43:31.000Z</time>
      </trkpt>
      <trkpt lat="42.8458476666" lon="-85.1338916663">
        <ele>258.530001</ele>
        <time>2024-06-09T08:43:40.000Z</time>
      </trkpt>
      <trkpt lat="42.8450293333" lon="-85.133879333">
        <ele>258.719998</ele>
        <time>2024-06-09T08:43:49.000Z</time>
      </trkpt>
      <trkpt lat="42.844208" lon="-85.133862">
        <ele>258.679996</ele>
        <time>2024-06-09T08:43:58.000Z</time>
      </trkpt>
      <trkpt lat="42.843556" lon="-85.133871">
        <ele>258.500005</ele>
        <time>2024-06-09T08:44:05.000Z</time>
      </trkpt>
      <trkpt lat="42.842926" lon="-85.133874">
        <ele>258.830003</ele>
        <time>2024-06-09T08:44:12.000Z</time>
      </trkpt>
      <trkpt lat="42.8429030751" lon="-85.1350752331">
        <ele>257.749992</ele>
        <time>2024-06-09T08:44:22.000Z</time>
      </trkpt>
      <trkpt lat="42.8429091377" lon="-85.1362694658">
        <ele>258.070003</ele>
        <time>2024-06-09T08:44:32.000Z</time>
      </trkpt>
      <trkpt lat="42.8428871877" lon="-85.1374606981">
        <ele>259.460007</ele>
        <time>2024-06-09T08:44:42.000Z</time>
      </trkpt>
      <trkpt lat="42.8428822253" lon="-85.1386669301">
        <ele>261.999999</ele>
        <time>2024-06-09T08:44:52.000Z</time>
      </trkpt>
      <trkpt lat="42.8428662503" lon="-85.1398601616">
        <ele>263.230005</ele>
        <time>2024-06-09T08:45:02.000Z</time>
      </trkpt>
      <trkpt lat="42.8428512628" lon="-85.1410703928">
        <ele>263.309996</ele>
        <time>2024-06-09T08:45:12.000Z</time>
      </trkpt>
      <trkpt lat="42.8428442628" lon="-85.1422586235">
        <ele>262.380002</ele>
        <time>2024-06-09T08:45:22.000Z</time>
      </trkpt>
      <trkpt lat="42.8428312503" lon="-85.1434718539">
        <ele>261.590001</ele>
        <time>2024-06-09T08:45:32.000Z</time>
      </trkpt>
      <trkpt lat="42.8428302253" lon="-85.1446720839">
        <ele>260.740005</ele>
        <time>2024-06-09T08:45:42.000Z</time>
      </trkpt>
      <trkpt lat="42.8428121877" lon="-85.1458623135">
        <ele>259.620005</ele>
        <time>2024-06-09T08:45:52.000Z</time>
      </trkpt>
      <trkpt lat="42.8428191377" lon="-85.1470625427">
        <ele>258.720009</ele>
        <time>2024-06-09T08:46:02.000Z</time>
      </trkpt>
      <trkpt lat="42.8427930751" lon="-85.1482527716">
        <ele>256.149998</ele>
        <time>2024-06-09T08:46:12.000Z</time>
      </trkpt>
      <trkpt lat="42.842797" lon="-85.14946">
        <ele>255.260001</ele>
        <time>2024-06-09T08:46:22.000Z</time>
      </trkpt>
      <trkpt lat="42.842787" lon="-85.149491">
        <ele>255.240006</ele>
        <time>2024-06-09T08:46:22.000Z</time>
      </trkpt>
      <trkpt lat="42.8427825143" lon="-85.1505405004">
        <ele>254.980003</ele>
        <time>2024-06-09T08:46:31.000Z</time>
      </trkpt>
      <trkpt lat="42.8427760191" lon="-85.1515970006">
        <ele>254.730009</ele>
        <time>2024-06-09T08:46:40.000Z</time>
      </trkpt>
      <trkpt lat="42.8427665143" lon="-85.1526505004">
        <ele>254.959998</ele>
        <time>2024-06-09T08:46:49.000Z</time>
      </trkpt>
      <trkpt lat="42.842754" lon="-85.153692">
        <ele>255.100003</ele>
        <time>2024-06-09T08:46:57.000Z</time>
      </trkpt>
      <trkpt lat="42.8427400115" lon="-85.1546265007">
        <ele>255.330007</ele>
        <time>2024-06-09T08:47:05.000Z</time>
      </trkpt>
      <trkpt lat="42.8427390153" lon="-85.155574001">
        <ele>255.339997</ele>
        <time>2024-06-09T08:47:13.000Z</time>
      </trkpt>
      <trkpt lat="42.8427060115" lon="-85.1564975007">
        <ele>255.260004</ele>
        <time>2024-06-09T08:47:21.000Z</time>
      </trkpt>
      <trkpt lat="42.842698" lon="-85.157446">
        <ele>255.159998</ele>
        <time>2024-06-09T08:47:29.000Z</time>
      </trkpt>
      <trkpt lat="42.8426878278" lon="-85.1586318908">
        <ele>255.079995</ele>
        <time>2024-06-09T08:47:39.000Z</time>
      </trkpt>
      <trkpt lat="42.8426776431" lon="-85.1598427811">
        <ele>255.649991</ele>
        <time>2024-06-09T08:47:49.000Z</time>
      </trkpt>
      <trkpt lat="42.8426564459" lon="-85.1610336709">
        <ele>257.429994</ele>
        <time>2024-06-09T08:47:59.000Z</time>
      </trkpt>
      <trkpt lat="42.8426422362" lon="-85.1622435603">
        <ele>259.009996</ele>
        <time>2024-06-09T08:48:09.000Z</time>
      </trkpt>
      <trkpt lat="42.842637014" lon="-85.1634334492">
        <ele>259.350004</ele>
        <time>2024-06-09T08:48:19.000Z</time>
      </trkpt>
      <trkpt lat="42.8426177792" lon="-85.1646363376">
        <ele>259.97</ele>
        <time>2024-06-09T08:48:29.000Z</time>
      </trkpt>
      <trkpt lat="42.842611532" lon="-85.1658322256">
        <ele>261.520001</ele>
        <time>2024-06-09T08:48:39.000Z</time>
      </trkpt>
      <trkpt lat="42.8426062723" lon="-85.167028113">
        <ele>261.999999</ele>
        <time>2024-06-09T08:48:49.000Z</time>
      </trkpt>
      <trkpt lat="42.842595" lon="-85.168231">
        <ele>262.800009</ele>
        <time>2024-06-09T08:48:59.000Z</time>
      </trkpt>
      <trkpt lat="42.8425879962" lon="-85.1694364481">
        <ele>262.600008</ele>
        <time>2024-06-09T08:49:09.000Z</time>
      </trkpt>
      <trkpt lat="42.8425739798" lon="-85.1706398958">
        <ele>262.139991</ele>
        <time>2024-06-09T08:49:19.000Z</time>
      </trkpt>
      <trkpt lat="42.8425519507" lon="-85.1718473431">
        <ele>261.350003</ele>
        <time>2024-06-09T08:49:29.000Z</time>
      </trkpt>
      <trkpt lat="42.842538909" lon="-85.1730437899">
        <ele>260.209997</ele>
        <time>2024-06-09T08:49:39.000Z</time>
      </trkpt>
      <trkpt lat="42.8425288547" lon="-85.1742452363">
        <ele>259.209992</ele>
        <time>2024-06-09T08:49:49.000Z</time>
      </trkpt>
      <trkpt lat="42.8425237878" lon="-85.1754506822">
        <ele>258.099995</ele>
        <time>2024-06-09T08:49:59.000Z</time>
      </trkpt>
      <trkpt lat="42.8425217082" lon="-85.1766631278">
        <ele>257.649999</ele>
        <time>2024-06-09T08:50:09.000Z</time>
      </trkpt>
      <trkpt lat="42.8425106161" lon="-85.1778705729">
        <ele>259.079994</ele>
        <time>2024-06-09T08:50:19.000Z</time>
      </trkpt>
      <trkpt lat="42.8424855113" lon="-85.1790670175">
        <ele>260.240007</ele>
        <time>2024-06-09T08:50:29.000Z</time>
      </trkpt>
      <trkpt lat="42.8424743938" lon="-85.1802834618">
        <ele>260.389996</ele>
        <time>2024-06-09T08:50:39.000Z</time>
      </trkpt>
      <trkpt lat="42.8424742638" lon="-85.1814829056">
        <ele>259.410008</ele>
        <time>2024-06-09T08:50:49.000Z</time>
      </trkpt>
      <trkpt lat="42.8424661211" lon="-85.1826913489">
        <ele>258.189992</ele>
        <time>2024-06-09T08:50:59.000Z</time>
      </trkpt>
      <trkpt lat="42.8424539658" lon="-85.1838867919">
        <ele>256.62</ele>
        <time>2024-06-09T08:51:09.000Z</time>
      </trkpt>
      <trkpt lat="42.8424407979" lon="-85.1850862344">
        <ele>256.459995</ele>
        <time>2024-06-09T08:51:19.000Z</time>
      </trkpt>
      <trkpt lat="42.8424156174" lon="-85.1863006764">
        <ele>256.670008</ele>
        <time>2024-06-09T08:51:29.000Z</time>
      </trkpt>
      <trkpt lat="42.8424054242" lon="-85.1875071181">
        <ele>256.729999</ele>
        <time>2024-06-09T08:51:39.000Z</time>
      </trkpt>
      <trkpt lat="42.8423972184" lon="-85.1887125592">
        <ele>257.150005</ele>
        <time>2024-06-09T08:51:49.000Z</time>
      </trkpt>
      <trkpt lat="42.842389" lon="-85.189902">
        <ele>257.209991</ele>
        <time>2024-06-09T08:51:59.000Z</time>
      </trkpt>
      <trkpt lat="42.8423770023" lon="-85.1906370004">
        <ele>257.209991</ele>
        <time>2024-06-09T08:52:05.000Z</time>
      </trkpt>
      <trkpt lat="42.842344" lon="-85.191365">
        <ele>257.500009</ele>
        <time>2024-06-09T08:52:11.000Z</time>
      </trkpt>
      <trkpt lat="42.8423020028" lon="-85.1921720008">
        <ele>257.929999</ele>
        <time>2024-06-09T08:52:18.000Z</time>
      </trkpt>
      <trkpt lat="42.842264" lon="-85.192993">
        <ele>258.479991</ele>
        <time>2024-06-09T08:52:25.000Z</time>
      </trkpt>
      <trkpt lat="42.842194" lon="-85.193477">
        <ele>258.659992</ele>
        <time>2024-06-09T08:52:29.000Z</time>
      </trkpt>
      <trkpt lat="42.842162" lon="-85.194536">
        <ele>258.429994</ele>
        <time>2024-06-09T08:52:38.000Z</time>
      </trkpt>
      <trkpt lat="42.8421690041" lon="-85.1955080002">
        <ele>257.849992</ele>
        <time>2024-06-09T08:52:46.000Z</time>
      </trkpt>
      <trkpt lat="42.842152" lon="-85.196479">
        <ele>257.329996</ele>
        <time>2024-06-09T08:52:54.000Z</time>
      </trkpt>
      <trkpt lat="42.8421580242" lon="-85.1976539995">
        <ele>256.229996</ele>
        <time>2024-06-09T08:53:04.000Z</time>
      </trkpt>
      <trkpt lat="42.8421640363" lon="-85.1988429993">
        <ele>254.080006</ele>
        <time>2024-06-09T08:53:14.000Z</time>
      </trkpt>
      <trkpt lat="42.8421750363" lon="-85.2000139993">
        <ele>250.600001</ele>
        <time>2024-06-09T08:53:24.000Z</time>
      </trkpt>
      <trkpt lat="42.8421820242" lon="-85.2011909995">
        <ele>248.459996</ele>
        <time>2024-06-09T08:53:34.000Z</time>
      </trkpt>
      <trkpt lat="42.842188" lon="-85.20238">
        <ele>249.519996</ele>
        <time>2024-06-09T08:53:44.000Z</time>
      </trkpt>
      <trkpt lat="42.842185" lon="-85.202385">
        <ele>249.520004</ele>
        <time>2024-06-09T08:53:44.000Z</time>
      </trkpt>
      <trkpt lat="42.8421650243" lon="-85.2012099996">
        <ele>248.429992</ele>
        <time>2024-06-09T08:53:54.000Z</time>
      </trkpt>
      <trkpt lat="42.8421770365" lon="-85.2000169993">
        <ele>250.960009</ele>
        <time>2024-06-09T08:54:04.000Z</time>
      </trkpt>
      <trkpt lat="42.8421680365" lon="-85.1988399994">
        <ele>254.419995</ele>
        <time>2024-06-09T08:54:14.000Z</time>
      </trkpt>
      <trkpt lat="42.8421600243" lon="-85.1976689996">
        <ele>256.229995</ele>
        <time>2024-06-09T08:54:24.000Z</time>
      </trkpt>
      <trkpt lat="42.842152" lon="-85.196472">
        <ele>257.33</ele>
        <time>2024-06-09T08:54:34.000Z</time>
      </trkpt>
      <trkpt lat="42.8421600041" lon="-85.1955040002">
        <ele>257.849997</ele>
        <time>2024-06-09T08:54:42.000Z</time>
      </trkpt>
      <trkpt lat="42.842176" lon="-85.194531">
        <ele>258.430005</ele>
        <time>2024-06-09T08:54:50.000Z</time>
      </trkpt>
      <trkpt lat="42.8422" lon="-85.193481">
        <ele>258.660009</ele>
        <time>2024-06-09T08:54:59.000Z</time>
      </trkpt>
      <trkpt lat="42.84227" lon="-85.192984">
        <ele>258.210004</ele>
        <time>2024-06-09T08:55:03.000Z</time>
      </trkpt>
      <trkpt lat="42.8423120029" lon="-85.1921830003">
        <ele>257.930003</ele>
        <time>2024-06-09T08:55:10.000Z</time>
      </trkpt>
      <trkpt lat="42.842352" lon="-85.191363">
        <ele>257.499997</ele>
        <time>2024-06-09T08:55:17.000Z</time>
      </trkpt>
      <trkpt lat="42.8423780023" lon="-85.1906490001">
        <ele>257.209999</ele>
        <time>2024-06-09T08:55:23.000Z</time>
      </trkpt>
      <trkpt lat="42.842392" lon="-85.189915">
        <ele>257.209992</ele>
        <time>2024-06-09T08:55:29.000Z</time>
      </trkpt>
      <trkpt lat="42.8424072184" lon="-85.1887125592">
        <ele>257.150005</ele>
        <time>2024-06-09T08:55:39.000Z</time>
      </trkpt>
      <trkpt lat="42.8424144242" lon="-85.1875071181">
        <ele>256.729994</ele>
        <time>2024-06-09T08:55:49.000Z</time>
      </trkpt>
      <trkpt lat="42.8424236174" lon="-85.1862966764">
        <ele>256.67</ele>
        <time>2024-06-09T08:55:59.000Z</time>
      </trkpt>
      <trkpt lat="42.8424427979" lon="-85.1850942344">
        <ele>256.459993</ele>
        <time>2024-06-09T08:56:09.000Z</time>
      </trkpt>
      <trkpt lat="42.8424519658" lon="-85.1838887919">
        <ele>256.619996</ele>
        <time>2024-06-09T08:56:19.000Z</time>
      </trkpt>
      <trkpt lat="42.8424541211" lon="-85.182689349">
        <ele>258.190005</ele>
        <time>2024-06-09T08:56:29.000Z</time>
      </trkpt>
      <trkpt lat="42.8424742638" lon="-85.1814769056">
        <ele>259.849992</ele>
        <time>2024-06-09T08:56:39.000Z</time>
      </trkpt>
      <trkpt lat="42.8424813938" lon="-85.1802724618">
        <ele>260.390002</ele>
        <time>2024-06-09T08:56:49.000Z</time>
      </trkpt>
      <trkpt lat="42.8424995113" lon="-85.1790790176">
        <ele>260.240004</ele>
        <time>2024-06-09T08:56:59.000Z</time>
      </trkpt>
      <trkpt lat="42.8424986161" lon="-85.1778645729">
        <ele>259.08</ele>
        <time>2024-06-09T08:57:09.000Z</time>
      </trkpt>
      <trkpt lat="42.8425127082" lon="-85.1766671278">
        <ele>257.650007</ele>
        <time>2024-06-09T08:57:19.000Z</time>
      </trkpt>
      <trkpt lat="42.8425247878" lon="-85.1754486823">
        <ele>258.099993</ele>
        <time>2024-06-09T08:57:29.000Z</time>
      </trkpt>
      <trkpt lat="42.8425438547" lon="-85.1742472363">
        <ele>259.209998</ele>
        <time>2024-06-09T08:57:39.000Z</time>
      </trkpt>
      <trkpt lat="42.842544909" lon="-85.1730427899">
        <ele>260.210001</ele>
        <time>2024-06-09T08:57:49.000Z</time>
      </trkpt>
      <trkpt lat="42.8425619507" lon="-85.1718523431">
        <ele>261.350008</ele>
        <time>2024-06-09T08:57:59.000Z</time>
      </trkpt>
      <trkpt lat="42.8425659798" lon="-85.1706348958">
        <ele>262.170009</ele>
        <time>2024-06-09T08:58:09.000Z</time>
      </trkpt>
      <trkpt lat="42.8425869962" lon="-85.1694314481">
        <ele>262.600007</ele>
        <time>2024-06-09T08:58:19.000Z</time>
      </trkpt>
      <trkpt lat="42.842594" lon="-85.168231">
        <ele>262.800004</ele>
        <time>2024-06-09T08:58:29.000Z</time>
      </trkpt>
      <trkpt lat="42.8426042723" lon="-85.167028113">
        <ele>262.000006</ele>
        <time>2024-06-09T08:58:39.000Z</time>
      </trkpt>
      <trkpt lat="42.842616532" lon="-85.1658242255">
        <ele>261.52</ele>
        <time>2024-06-09T08:58:49.000Z</time>
      </trkpt>
      <trkpt lat="42.8426197792" lon="-85.1646373376">
        <ele>259.969994</ele>
        <time>2024-06-09T08:58:59.000Z</time>
      </trkpt>
      <trkpt lat="42.842645014" lon="-85.1634434492">
        <ele>259.329999</ele>
        <time>2024-06-09T08:59:09.000Z</time>
      </trkpt>
      <trkpt lat="42.8426542362" lon="-85.1622425603">
        <ele>259.009995</ele>
        <time>2024-06-09T08:59:19.000Z</time>
      </trkpt>
      <trkpt lat="42.8426614459" lon="-85.1610366709">
        <ele>257.430001</ele>
        <time>2024-06-09T08:59:29.000Z</time>
      </trkpt>
      <trkpt lat="42.8426666431" lon="-85.1598447811">
        <ele>255.649993</ele>
        <time>2024-06-09T08:59:39.000Z</time>
      </trkpt>
      <trkpt lat="42.8426958278" lon="-85.1586318908">
        <ele>255.080003</ele>
        <time>2024-06-09T08:59:49.000Z</time>
      </trkpt>
      <trkpt lat="42.842701" lon="-85.157435">
        <ele>255.160008</ele>
        <time>2024-06-09T08:59:59.000Z</time>
      </trkpt>
      <trkpt lat="42.8427230115" lon="-85.1564945007">
        <ele>255.309992</ele>
        <time>2024-06-09T09:00:07.000Z</time>
      </trkpt>
      <trkpt lat="42.8427330153" lon="-85.1555670009">
        <ele>255.340002</ele>
        <time>2024-06-09T09:00:15.000Z</time>
      </trkpt>
      <trkpt lat="42.8427460115" lon="-85.1546295006">
        <ele>255.250006</ele>
        <time>2024-06-09T09:00:23.000Z</time>
      </trkpt>
      <trkpt lat="42.842755" lon="-85.153682">
        <ele>255.099998</ele>
        <time>2024-06-09T09:00:31.000Z</time>
      </trkpt>
      <trkpt lat="42.8427755064" lon="-85.1525271205">
        <ele>254.949997</ele>
        <time>2024-06-09T09:00:40.000Z</time>
      </trkpt>
      <trkpt lat="42.842770001" lon="-85.1513562406">
        <ele>255.020005</ele>
        <time>2024-06-09T09:00:50.000Z</time>
      </trkpt>
      <trkpt lat="42.8427864837" lon="-85.1502003604">
        <ele>254.960006</ele>
        <time>2024-06-09T09:00:59.000Z</time>
      </trkpt>
      <trkpt lat="42.8427899546" lon="-85.1490354799">
        <ele>255.689994</ele>
        <time>2024-06-09T09:01:08.000Z</time>
      </trkpt>
      <trkpt lat="42.8428164137" lon="-85.1478575989">
        <ele>257.880003</ele>
        <time>2024-06-09T09:01:18.000Z</time>
      </trkpt>
      <trkpt lat="42.8428148609" lon="-85.1466977176">
        <ele>259.119994</ele>
        <time>2024-06-09T09:01:27.000Z</time>
      </trkpt>
      <trkpt lat="42.8428202963" lon="-85.145536836">
        <ele>260.160002</ele>
        <time>2024-06-09T09:01:36.000Z</time>
      </trkpt>
      <trkpt lat="42.8428447199" lon="-85.144355954">
        <ele>260.979997</ele>
        <time>2024-06-09T09:01:46.000Z</time>
      </trkpt>
      <trkpt lat="42.8428371317" lon="-85.1432030716">
        <ele>262.049998</ele>
        <time>2024-06-09T09:01:55.000Z</time>
      </trkpt>
      <trkpt lat="42.8428495316" lon="-85.1420291889">
        <ele>262.920002</ele>
        <time>2024-06-09T09:02:05.000Z</time>
      </trkpt>
      <trkpt lat="42.8428709197" lon="-85.1408633059">
        <ele>263.320009</ele>
        <time>2024-06-09T09:02:15.000Z</time>
      </trkpt>
      <trkpt lat="42.842870296" lon="-85.1396974224">
        <ele>263.029991</ele>
        <time>2024-06-09T09:02:25.000Z</time>
      </trkpt>
      <trkpt lat="42.8428796605" lon="-85.1385335387">
        <ele>261.240008</ele>
        <time>2024-06-09T09:02:34.000Z</time>
      </trkpt>
      <trkpt lat="42.8429000131" lon="-85.1373706545">
        <ele>258.899994</ele>
        <time>2024-06-09T09:02:43.000Z</time>
      </trkpt>
      <trkpt lat="42.8428973539" lon="-85.1361947701">
        <ele>257.939993</ele>
        <time>2024-06-09T09:02:53.000Z</time>
      </trkpt>
      <trkpt lat="42.8429106829" lon="-85.1350288852">
        <ele>257.859998</ele>
        <time>2024-06-09T09:03:03.000Z</time>
      </trkpt>
      <trkpt lat="42.842917" lon="-85.133866">
        <ele>258.840002</ele>
        <time>2024-06-09T09:03:12.000Z</time>
      </trkpt>
      <trkpt lat="42.8434790002" lon="-85.133862">
        <ele>258.499997</ele>
        <time>2024-06-09T09:03:18.000Z</time>
      </trkpt>
      <trkpt lat="42.844039" lon="-85.133866">
        <ele>258.649993</ele>
        <time>2024-06-09T09:03:24.000Z</time>
      </trkpt>
      <trkpt lat="42.844064" lon="-85.133867">
        <ele>258.670005</ele>
        <time>2024-06-09T09:03:24.000Z</time>
      </trkpt>
      <trkpt lat="42.844936" lon="-85.1338792845">
        <ele>258.720008</ele>
        <time>2024-06-09T09:03:34.000Z</time>
      </trkpt>
      <trkpt lat="42.845793" lon="-85.1338975694">
        <ele>258.529995</ele>
        <time>2024-06-09T09:03:44.000Z</time>
      </trkpt>
      <trkpt lat="42.846675" lon="-85.1339088547">
        <ele>259.099996</ele>
        <time>2024-06-09T09:03:54.000Z</time>
      </trkpt>
      <trkpt lat="42.847536" lon="-85.1339341404">
        <ele>258.440009</ele>
        <time>2024-06-09T09:04:04.000Z</time>
      </trkpt>
      <trkpt lat="42.848405" lon="-85.1339434266">
        <ele>258.390008</ele>
        <time>2024-06-09T09:04:14.000Z</time>
      </trkpt>
      <trkpt lat="42.849278" lon="-85.1339507131">
        <ele>260.31</ele>
        <time>2024-06-09T09:04:24.000Z</time>
      </trkpt>
      <trkpt lat="42.850145" lon="-85.133967">
        <ele>261.810008</ele>
        <time>2024-06-09T09:04:34.000Z</time>
      </trkpt>
      <trkpt lat="42.850489" lon="-85.134002">
        <ele>262.390009</ele>
        <time>2024-06-09T09:04:38.000Z</time>
      </trkpt>
      <trkpt lat="42.8510280002" lon="-85.133999">
        <ele>262.619993</ele>
        <time>2024-06-09T09:04:44.000Z</time>
      </trkpt>
      <trkpt lat="42.85159" lon="-85.134007">
        <ele>263.029998</ele>
        <time>2024-06-09T09:04:50.000Z</time>
      </trkpt>
      <trkpt lat="42.852239" lon="-85.1340026667">
        <ele>263.850009</ele>
        <time>2024-06-09T09:04:57.000Z</time>
      </trkpt>
      <trkpt lat="42.852894" lon="-85.1340043334">
        <ele>265.230008</ele>
        <time>2024-06-09T09:05:04.000Z</time>
      </trkpt>
      <trkpt lat="42.853532" lon="-85.134">
        <ele>266.539995</ele>
        <time>2024-06-09T09:05:11.000Z</time>
      </trkpt>
      <trkpt lat="42.8543996666" lon="-85.1340273327">
        <ele>267.209995</ele>
        <time>2024-06-09T09:05:21.000Z</time>
      </trkpt>
      <trkpt lat="42.8552673333" lon="-85.134050666">
        <ele>266.38</ele>
        <time>2024-06-09T09:05:31.000Z</time>
      </trkpt>
      <trkpt lat="42.856148" lon="-85.134077">
        <ele>264.859995</ele>
        <time>2024-06-09T09:05:41.000Z</time>
      </trkpt>
      <trkpt lat="42.856629" lon="-85.1340989998">
        <ele>264.219997</ele>
        <time>2024-06-09T09:05:46.000Z</time>
      </trkpt>
      <trkpt lat="42.857097" lon="-85.134121">
        <ele>263.910004</ele>
        <time>2024-06-09T09:05:51.000Z</time>
      </trkpt>
      <trkpt lat="42.857861" lon="-85.1342219988">
        <ele>263.740001</ele>
        <time>2024-06-09T09:06:00.000Z</time>
      </trkpt>
      <trkpt lat="42.858622" lon="-85.134328">
        <ele>263.440005</ele>
        <time>2024-06-09T09:06:09.000Z</time>
      </trkpt>
      <trkpt lat="42.8594520001" lon="-85.1342680006">
        <ele>263.449997</ele>
        <time>2024-06-09T09:06:18.000Z</time>
      </trkpt>
      <trkpt lat="42.860263" lon="-85.134228">
        <ele>263.409996</ele>
        <time>2024-06-09T09:06:27.000Z</time>
      </trkpt>
      <trkpt lat="42.8610397143" lon="-85.1342172861">
        <ele>263.349998</ele>
        <time>2024-06-09T09:06:36.000Z</time>
      </trkpt>
      <trkpt lat="42.8618124285" lon="-85.1342155721">
        <ele>263.599992</ele>
        <time>2024-06-09T09:06:45.000Z</time>
      </trkpt>
      <trkpt lat="42.8625891428" lon="-85.134211858">
        <ele>263.860003</ele>
        <time>2024-06-09T09:06:54.000Z</time>
      </trkpt>
      <trkpt lat="42.8633618571" lon="-85.1342051437">
        <ele>263.949999</ele>
        <time>2024-06-09T09:07:03.000Z</time>
      </trkpt>
      <trkpt lat="42.8641375714" lon="-85.1341974293">
        <ele>263.950003</ele>
        <time>2024-06-09T09:07:12.000Z</time>
      </trkpt>
      <trkpt lat="42.8649132856" lon="-85.1342037147">
        <ele>264.169992</ele>
        <time>2024-06-09T09:07:21.000Z</time>
      </trkpt>
      <trkpt lat="42.865685" lon="-85.134182">
        <ele>264.420008</ele>
        <time>2024-06-09T09:07:30.000Z</time>
      </trkpt>
      <trkpt lat="42.8665867143" lon="-85.1341962858">
        <ele>264.399999</ele>
        <time>2024-06-09T09:07:40.000Z</time>
      </trkpt>
      <trkpt lat="42.8674644286" lon="-85.1341935717">
        <ele>263.609997</ele>
        <time>2024-06-09T09:07:50.000Z</time>
      </trkpt>
      <trkpt lat="42.8683711429" lon="-85.1341808575">
        <ele>261.859997</ele>
        <time>2024-06-09T09:08:00.000Z</time>
      </trkpt>
      <trkpt lat="42.8692478571" lon="-85.1341921433">
        <ele>260.32</ele>
        <time>2024-06-09T09:08:10.000Z</time>
      </trkpt>
      <trkpt lat="42.8701355714" lon="-85.134183429">
        <ele>259.410006</ele>
        <time>2024-06-09T09:08:20.000Z</time>
      </trkpt>
      <trkpt lat="42.8710262857" lon="-85.1341907148">
        <ele>259.49</ele>
        <time>2024-06-09T09:08:30.000Z</time>
      </trkpt>
      <trkpt lat="42.871926" lon="-85.1341860005">
        <ele>259.620001</ele>
        <time>2024-06-09T09:08:40.000Z</time>
      </trkpt>
      <trkpt lat="42.8728087143" lon="-85.1341812862">
        <ele>259.270004</ele>
        <time>2024-06-09T09:08:50.000Z</time>
      </trkpt>
      <trkpt lat="42.8737054286" lon="-85.1341765719">
        <ele>259.119995</ele>
        <time>2024-06-09T09:09:00.000Z</time>
      </trkpt>
      <trkpt lat="42.8745961429" lon="-85.1341858576">
        <ele>258.419992</ele>
        <time>2024-06-09T09:09:10.000Z</time>
      </trkpt>
      <trkpt lat="42.8754858571" lon="-85.1341841432">
        <ele>257.88</ele>
        <time>2024-06-09T09:09:20.000Z</time>
      </trkpt>
      <trkpt lat="42.8763835714" lon="-85.1341764288">
        <ele>257.639998</ele>
        <time>2024-06-09T09:09:30.000Z</time>
      </trkpt>
      <trkpt lat="42.8772632857" lon="-85.1341797144">
        <ele>258.020009</ele>
        <time>2024-06-09T09:09:40.000Z</time>
      </trkpt>
      <trkpt lat="42.878166" lon="-85.134181">
        <ele>261.290007</ele>
        <time>2024-06-09T09:09:50.000Z</time>
      </trkpt>
      <trkpt lat="42.879045" lon="-85.1341835561">
        <ele>264.249993</ele>
        <time>2024-06-09T09:10:00.000Z</time>
      </trkpt>
      <trkpt lat="42.879938" lon="-85.134172112">
        <ele>264.310001</ele>
        <time>2024-06-09T09:10:10.000Z</time>
      </trkpt>
      <trkpt lat="42.880835" lon="-85.1341656678">
        <ele>261.800003</ele>
        <time>2024-06-09T09:10:20.000Z</time>
      </trkpt>
      <trkpt lat="42.881725" lon="-85.1341562235">
        <ele>261.579993</ele>
        <time>2024-06-09T09:10:30.000Z</time>
      </trkpt>
      <trkpt lat="42.882617" lon="-85.1341657791">
        <ele>262.449997</ele>
        <time>2024-06-09T09:10:40.000Z</time>
      </trkpt>
      <trkpt lat="42.883508" lon="-85.1341593345">
        <ele>261.860008</ele>
        <time>2024-06-09T09:10:50.000Z</time>
      </trkpt>
      <trkpt lat="42.884398" lon="-85.1341458898">
        <ele>261.620003</ele>
        <time>2024-06-09T09:11:00.000Z</time>
      </trkpt>
      <trkpt lat="42.885279" lon="-85.134147445">
        <ele>261.609995</ele>
        <time>2024-06-09T09:11:10.000Z</time>
      </trkpt>
      <trkpt lat="42.886168" lon="-85.134134">
        <ele>261.739991</ele>
        <time>2024-06-09T09:11:20.000Z</time>
      </trkpt>
      <trkpt lat="42.8869565714" lon="-85.134143">
        <ele>261.049999</ele>
        <time>2024-06-09T09:11:29.000Z</time>
      </trkpt>
      <trkpt lat="42.8877541428" lon="-85.134133">
        <ele>260.680004</ele>
        <time>2024-06-09T09:11:38.000Z</time>
      </trkpt>
      <trkpt lat="42.8885427143" lon="-85.134142">
        <ele>260.760005</ele>
        <time>2024-06-09T09:11:47.000Z</time>
      </trkpt>
      <trkpt lat="42.8893292857" lon="-85.134138">
        <ele>260.799997</ele>
        <time>2024-06-09T09:11:56.000Z</time>
      </trkpt>
      <trkpt lat="42.8901158571" lon="-85.134145">
        <ele>260.739991</ele>
        <time>2024-06-09T09:12:05.000Z</time>
      </trkpt>
      <trkpt lat="42.8908994285" lon="-85.134145">
        <ele>260.830007</ele>
        <time>2024-06-09T09:12:14.000Z</time>
      </trkpt>
      <trkpt lat="42.891682" lon="-85.134139">
        <ele>261.370005</ele>
        <time>2024-06-09T09:12:23.000Z</time>
      </trkpt>
      <trkpt lat="42.8925426666" lon="-85.134160333">
        <ele>262.019997</ele>
        <time>2024-06-09T09:12:33.000Z</time>
      </trkpt>
      <trkpt lat="42.8933983333" lon="-85.1341646663">
        <ele>260.979999</ele>
        <time>2024-06-09T09:12:43.000Z</time>
      </trkpt>
      <trkpt lat="42.894251" lon="-85.134171">
        <ele>259.310007</ele>
        <time>2024-06-09T09:12:52.000Z</time>
      </trkpt>
      <trkpt lat="42.895001" lon="-85.1341700003">
        <ele>257.590008</ele>
        <time>2024-06-09T09:13:00.000Z</time>
      </trkpt>
      <trkpt lat="42.895753" lon="-85.1341750004">
        <ele>256.220001</ele>
        <time>2024-06-09T09:13:08.000Z</time>
      </trkpt>
      <trkpt lat="42.896513" lon="-85.1341560004">
        <ele>255.459992</ele>
        <time>2024-06-09T09:13:16.000Z</time>
      </trkpt>
      <trkpt lat="42.897255" lon="-85.1341580003">
        <ele>255.420005</ele>
        <time>2024-06-09T09:13:24.000Z</time>
      </trkpt>
      <trkpt lat="42.897991" lon="-85.134145">
        <ele>255.910009</ele>
        <time>2024-06-09T09:13:32.000Z</time>
      </trkpt>
      <trkpt lat="42.8988566364" lon="-85.134158">
        <ele>256.340001</ele>
        <time>2024-06-09T09:13:42.000Z</time>
      </trkpt>
      <trkpt lat="42.8997282727" lon="-85.134148">
        <ele>257.080009</ele>
        <time>2024-06-09T09:13:52.000Z</time>
      </trkpt>
      <trkpt lat="42.9005879091" lon="-85.134152">
        <ele>257.509998</ele>
        <time>2024-06-09T09:14:02.000Z</time>
      </trkpt>
      <trkpt lat="42.9014505455" lon="-85.134153">
        <ele>256.919998</ele>
        <time>2024-06-09T09:14:12.000Z</time>
      </trkpt>
      <trkpt lat="42.9023171818" lon="-85.134146">
        <ele>256.54</ele>
        <time>2024-06-09T09:14:22.000Z</time>
      </trkpt>
      <trkpt lat="42.9031728182" lon="-85.134156">
        <ele>256.280004</ele>
        <time>2024-06-09T09:14:32.000Z</time>
      </trkpt>
      <trkpt lat="42.9040404546" lon="-85.134155">
        <ele>256.239993</ele>
        <time>2024-06-09T09:14:42.000Z</time>
      </trkpt>
      <trkpt lat="42.9049150909" lon="-85.134151">
        <ele>255.890008</ele>
        <time>2024-06-09T09:14:52.000Z</time>
      </trkpt>
      <trkpt lat="42.9057667273" lon="-85.134142">
        <ele>255.329995</ele>
        <time>2024-06-09T09:15:01.000Z</time>
      </trkpt>
      <trkpt lat="42.9066273637" lon="-85.134156">
        <ele>255.110005</ele>
        <time>2024-06-09T09:15:11.000Z</time>
      </trkpt>
      <trkpt lat="42.9075" lon="-85.134151">
        <ele>254.289996</ele>
        <time>2024-06-09T09:15:21.000Z</time>
      </trkpt>
      <trkpt lat="42.9083838" lon="-85.1341460007">
        <ele>253.420005</ele>
        <time>2024-06-09T09:15:31.000Z</time>
      </trkpt>
      <trkpt lat="42.9092846" lon="-85.1341470013">
        <ele>252.289995</ele>
        <time>2024-06-09T09:15:41.000Z</time>
      </trkpt>
      <trkpt lat="42.9101584" lon="-85.1341440019">
        <ele>251.43</ele>
        <time>2024-06-09T09:15:51.000Z</time>
      </trkpt>
      <trkpt lat="42.9110482" lon="-85.1341390024">
        <ele>250.779993</ele>
        <time>2024-06-09T09:16:01.000Z</time>
      </trkpt>
      <trkpt lat="42.911938" lon="-85.1341390029">
        <ele>250.419994</ele>
        <time>2024-06-09T09:16:11.000Z</time>
      </trkpt>
      <trkpt lat="42.9128348" lon="-85.1341360033">
        <ele>250.359993</ele>
        <time>2024-06-09T09:16:21.000Z</time>
      </trkpt>
      <trkpt lat="42.9137286" lon="-85.1341320036">
        <ele>251.350006</ele>
        <time>2024-06-09T09:16:31.000Z</time>
      </trkpt>
      <trkpt lat="42.9146134" lon="-85.1341250039">
        <ele>251.890009</ele>
        <time>2024-06-09T09:16:41.000Z</time>
      </trkpt>
      <trkpt lat="42.9154902" lon="-85.1341290042">
        <ele>250.689997</ele>
        <time>2024-06-09T09:16:51.000Z</time>
      </trkpt>
      <trkpt lat="42.916387" lon="-85.1341230043">
        <ele>249.400008</ele>
        <time>2024-06-09T09:17:01.000Z</time>
      </trkpt>
      <trkpt lat="42.9172728" lon="-85.1341350044">
        <ele>247.809995</ele>
        <time>2024-06-09T09:17:11.000Z</time>
      </trkpt>
      <trkpt lat="42.9181596" lon="-85.1341350045">
        <ele>247.209995</ele>
        <time>2024-06-09T09:17:21.000Z</time>
      </trkpt>
      <trkpt lat="42.9190544" lon="-85.1341220045">
        <ele>246.589999</ele>
        <time>2024-06-09T09:17:31.000Z</time>
      </trkpt>
      <trkpt lat="42.9199372" lon="-85.1341170044">
        <ele>245.870001</ele>
        <time>2024-06-09T09:17:41.000Z</time>
      </trkpt>
      <trkpt lat="42.920837" lon="-85.1341250043">
        <ele>245.309995</ele>
        <time>2024-06-09T09:17:51.000Z</time>
      </trkpt>
      <trkpt lat="42.9217248" lon="-85.1341100042">
        <ele>245.119992</ele>
        <time>2024-06-09T09:18:01.000Z</time>
      </trkpt>
      <trkpt lat="42.9226136" lon="-85.1341120039">
        <ele>245.519999</ele>
        <time>2024-06-09T09:18:11.000Z</time>
      </trkpt>
      <trkpt lat="42.9235074" lon="-85.1341160036">
        <ele>246.219994</ele>
        <time>2024-06-09T09:18:21.000Z</time>
      </trkpt>
      <trkpt lat="42.9243892" lon="-85.1341060033">
        <ele>247.150005</ele>
        <time>2024-06-09T09:18:31.000Z</time>
      </trkpt>
      <trkpt lat="42.925285" lon="-85.1341120029">
        <ele>245.960004</ele>
        <time>2024-06-09T09:18:41.000Z</time>
      </trkpt>
      <trkpt lat="42.9261718" lon="-85.1341050024">
        <ele>244.500008</ele>
        <time>2024-06-09T09:18:51.000Z</time>
      </trkpt>
      <trkpt lat="42.9270616" lon="-85.1341090019">
        <ele>241.879993</ele>
        <time>2024-06-09T09:19:01.000Z</time>
      </trkpt>
      <trkpt lat="42.9279514" lon="-85.1341070013">
        <ele>238.940005</ele>
        <time>2024-06-09T09:19:11.000Z</time>
      </trkpt>
      <trkpt lat="42.9288382" lon="-85.1341000007">
        <ele>234.000006</ele>
        <time>2024-06-09T09:19:21.000Z</time>
      </trkpt>
      <trkpt lat="42.929712" lon="-85.134106">
        <ele>232.610006</ele>
        <time>2024-06-09T09:19:31.000Z</time>
      </trkpt>
      <trkpt lat="42.929738" lon="-85.134851">
        <ele>231.610008</ele>
        <time>2024-06-09T09:19:37.000Z</time>
      </trkpt>
      <trkpt lat="42.9297179209" lon="-85.1360551553">
        <ele>234.870002</ele>
        <time>2024-06-09T09:19:47.000Z</time>
      </trkpt>
      <trkpt lat="42.9297108293" lon="-85.1372403103">
        <ele>239.360004</ele>
        <time>2024-06-09T09:19:57.000Z</time>
      </trkpt>
      <trkpt lat="42.9297137253" lon="-85.1384434651">
        <ele>242.170001</ele>
        <time>2024-06-09T09:20:07.000Z</time>
      </trkpt>
      <trkpt lat="42.9297116088" lon="-85.1396326197">
        <ele>243.719996</ele>
        <time>2024-06-09T09:20:17.000Z</time>
      </trkpt>
      <trkpt lat="42.9296984798" lon="-85.140832774">
        <ele>244.040002</ele>
        <time>2024-06-09T09:20:27.000Z</time>
      </trkpt>
      <trkpt lat="42.9296993384" lon="-85.1420319281">
        <ele>244.320006</ele>
        <time>2024-06-09T09:20:37.000Z</time>
      </trkpt>
      <trkpt lat="42.9296951846" lon="-85.1432220819">
        <ele>244.150004</ele>
        <time>2024-06-09T09:20:47.000Z</time>
      </trkpt>
      <trkpt lat="42.9296870183" lon="-85.1444112355">
        <ele>243.290009</ele>
        <time>2024-06-09T09:20:57.000Z</time>
      </trkpt>
      <trkpt lat="42.9296798395" lon="-85.1456213889">
        <ele>242.840001</ele>
        <time>2024-06-09T09:21:07.000Z</time>
      </trkpt>
      <trkpt lat="42.9296726483" lon="-85.146820542">
        <ele>244.160001</ele>
        <time>2024-06-09T09:21:17.000Z</time>
      </trkpt>
      <trkpt lat="42.9296644447" lon="-85.1480046949">
        <ele>245.010008</ele>
        <time>2024-06-09T09:21:27.000Z</time>
      </trkpt>
      <trkpt lat="42.9296532286" lon="-85.1492108476">
        <ele>245.079991</ele>
        <time>2024-06-09T09:21:37.000Z</time>
      </trkpt>
      <trkpt lat="42.92965" lon="-85.150401">
        <ele>245.090001</ele>
        <time>2024-06-09T09:21:47.000Z</time>
      </trkpt>
      <trkpt lat="42.929652" lon="-85.150435">
        <ele>245.090008</ele>
        <time>2024-06-09T09:21:47.000Z</time>
      </trkpt>
      <trkpt lat="42.9296446771" lon="-85.1515253334">
        <ele>244.920002</ele>
        <time>2024-06-09T09:21:56.000Z</time>
      </trkpt>
      <trkpt lat="42.9296353437" lon="-85.1526246668">
        <ele>244.51</ele>
        <time>2024-06-09T09:22:05.000Z</time>
      </trkpt>
      <trkpt lat="42.929645" lon="-85.153706">
        <ele>244.450005</ele>
        <time>2024-06-09T09:22:14.000Z</time>
      </trkpt>
      <trkpt lat="42.9296320102" lon="-85.1547963333">
        <ele>241.109996</ele>
        <time>2024-06-09T09:22:23.000Z</time>
      </trkpt>
      <trkpt lat="42.9296360102" lon="-85.1558836666">
        <ele>235.240005</ele>
        <time>2024-06-09T09:22:32.000Z</time>
      </trkpt>
      <trkpt lat="42.929644" lon="-85.156964">
        <ele>231.940004</ele>
        <time>2024-06-09T09:22:41.000Z</time>
      </trkpt>
      <trkpt lat="42.929637728" lon="-85.1580946673">
        <ele>229.730002</ele>
        <time>2024-06-09T09:22:50.000Z</time>
      </trkpt>
      <trkpt lat="42.9296344448" lon="-85.1592163346">
        <ele>229.279996</ele>
        <time>2024-06-09T09:22:59.000Z</time>
      </trkpt>
      <trkpt lat="42.9296291505" lon="-85.1603600016">
        <ele>230.010003</ele>
        <time>2024-06-09T09:23:08.000Z</time>
      </trkpt>
      <trkpt lat="42.929635845" lon="-85.1614806686">
        <ele>234.160004</ele>
        <time>2024-06-09T09:23:17.000Z</time>
      </trkpt>
      <trkpt lat="42.9296155284" lon="-85.1626213355">
        <ele>237.500004</ele>
        <time>2024-06-09T09:23:26.000Z</time>
      </trkpt>
      <trkpt lat="42.9296122006" lon="-85.1637430022">
        <ele>237.949995</ele>
        <time>2024-06-09T09:23:35.000Z</time>
      </trkpt>
      <trkpt lat="42.9296198617" lon="-85.1648816688">
        <ele>232.680003</ele>
        <time>2024-06-09T09:23:44.000Z</time>
      </trkpt>
      <trkpt lat="42.9296185117" lon="-85.1660073353">
        <ele>224.629998</ele>
        <time>2024-06-09T09:23:53.000Z</time>
      </trkpt>
      <trkpt lat="42.9296091505" lon="-85.1671480017">
        <ele>222.419991</ele>
        <time>2024-06-09T09:24:02.000Z</time>
      </trkpt>
      <trkpt lat="42.9295977781" lon="-85.1682796679">
        <ele>220.709991</ele>
        <time>2024-06-09T09:24:11.000Z</time>
      </trkpt>
      <trkpt lat="42.9295963946" lon="-85.169401334">
        <ele>221.090001</ele>
        <time>2024-06-09T09:24:20.000Z</time>
      </trkpt>
      <trkpt lat="42.929605" lon="-85.170542">
        <ele>225.959998</ele>
        <time>2024-06-09T09:24:29.000Z</time>
      </trkpt>
      <trkpt lat="42.9295970024" lon="-85.1712800002">
        <ele>231.090008</ele>
        <time>2024-06-09T09:24:35.000Z</time>
      </trkpt>
      <trkpt lat="42.929575" lon="-85.172002">
        <ele>233.800002</ele>
        <time>2024-06-09T09:24:41.000Z</time>
      </trkpt>
      <trkpt lat="42.9295792144" lon="-85.1731789991">
        <ele>233.739991</ele>
        <time>2024-06-09T09:24:51.000Z</time>
      </trkpt>
      <trkpt lat="42.9295774168" lon="-85.1743549983">
        <ele>232.020001</ele>
        <time>2024-06-09T09:25:01.000Z</time>
      </trkpt>
      <trkpt lat="42.9295976073" lon="-85.1755289977">
        <ele>230.800009</ele>
        <time>2024-06-09T09:25:11.000Z</time>
      </trkpt>
      <trkpt lat="42.929600786" lon="-85.1766829971">
        <ele>227.869993</ele>
        <time>2024-06-09T09:25:20.000Z</time>
      </trkpt>
      <trkpt lat="42.9295929527" lon="-85.1778679967">
        <ele>222.080005</ele>
        <time>2024-06-09T09:25:30.000Z</time>
      </trkpt>
      <trkpt lat="42.9295941074" lon="-85.1790219964">
        <ele>216.189993</ele>
        <time>2024-06-09T09:25:39.000Z</time>
      </trkpt>
      <trkpt lat="42.9296062503" lon="-85.1802009962">
        <ele>211.35</ele>
        <time>2024-06-09T09:25:49.000Z</time>
      </trkpt>
      <trkpt lat="42.9295963813" lon="-85.1813639962">
        <ele>210.259997</ele>
        <time>2024-06-09T09:25:58.000Z</time>
      </trkpt>
      <trkpt lat="42.9296015003" lon="-85.1825379962">
        <ele>210.819998</ele>
        <time>2024-06-09T09:26:08.000Z</time>
      </trkpt>
      <trkpt lat="42.9296136074" lon="-85.1837119964">
        <ele>211.930004</ele>
        <time>2024-06-09T09:26:18.000Z</time>
      </trkpt>
      <trkpt lat="42.9296057027" lon="-85.1848809967">
        <ele>213.660009</ele>
        <time>2024-06-09T09:26:28.000Z</time>
      </trkpt>
      <trkpt lat="42.929608786" lon="-85.1860459971">
        <ele>217.23</ele>
        <time>2024-06-09T09:26:37.000Z</time>
      </trkpt>
      <trkpt lat="42.9296288573" lon="-85.1872199977">
        <ele>219.18</ele>
        <time>2024-06-09T09:26:47.000Z</time>
      </trkpt>
      <trkpt lat="42.9296279168" lon="-85.1883829983">
        <ele>219.190006</ele>
        <time>2024-06-09T09:26:56.000Z</time>
      </trkpt>
      <trkpt lat="42.9296249644" lon="-85.1895599991">
        <ele>221.230004</ele>
        <time>2024-06-09T09:27:06.000Z</time>
      </trkpt>
      <trkpt lat="42.929624" lon="-85.190726">
        <ele>225.439991</ele>
        <time>2024-06-09T09:27:16.000Z</time>
      </trkpt>
      <trkpt lat="42.9296430044" lon="-85.1917439997">
        <ele>225.470002</ele>
        <time>2024-06-09T09:27:24.000Z</time>
      </trkpt>
      <trkpt lat="42.929659" lon="-85.192745">
        <ele>222.970009</ele>
        <time>2024-06-09T09:27:32.000Z</time>
      </trkpt>
      <trkpt lat="42.92971" lon="-85.193284">
        <ele>219.879993</ele>
        <time>2024-06-09T09:27:36.000Z</time>
      </trkpt>
      <trkpt lat="42.929888" lon="-85.194292">
        <ele>217.539994</ele>
        <time>2024-06-09T09:27:44.000Z</time>
      </trkpt>
      <trkpt lat="42.929901" lon="-85.194761">
        <ele>216.520004</ele>
        <time>2024-06-09T09:27:48.000Z</time>
      </trkpt>
      <trkpt lat="42.9298680065" lon="-85.1959870006">
        <ele>214.809999</ele>
        <time>2024-06-09T09:27:58.000Z</time>
      </trkpt>
      <trkpt lat="42.929855" lon="-85.197219">
        <ele>213.320006</ele>
        <time>2024-06-09T09:28:08.000Z</time>
      </trkpt>
      <trkpt lat="42.929809" lon="-85.198386">
        <ele>212.809993</ele>
        <time>2024-06-09T09:28:18.000Z</time>
      </trkpt>
      <trkpt lat="42.9297980034" lon="-85.199279">
        <ele>211.160004</ele>
        <time>2024-06-09T09:28:25.000Z</time>
      </trkpt>
      <trkpt lat="42.929789" lon="-85.200154">
        <ele>210.000003</ele>
        <time>2024-06-09T09:28:32.000Z</time>
      </trkpt>
      <trkpt lat="42.9297583437" lon="-85.2012570009">
        <ele>208.620001</ele>
        <time>2024-06-09T09:28:41.000Z</time>
      </trkpt>
      <trkpt lat="42.929734677" lon="-85.2023410008">
        <ele>207.890006</ele>
        <time>2024-06-09T09:28:50.000Z</time>
      </trkpt>
      <trkpt lat="42.929719" lon="-85.203426">
        <ele>206.870003</ele>
        <time>2024-06-09T09:28:59.000Z</time>
      </trkpt>
      <trkpt lat="42.9296610053" lon="-85.2045240007">
        <ele>206.039994</ele>
        <time>2024-06-09T09:29:08.000Z</time>
      </trkpt>
      <trkpt lat="42.929624" lon="-85.205622">
        <ele>206.3</ele>
        <time>2024-06-09T09:29:17.000Z</time>
      </trkpt>
      <trkpt lat="42.9296316739" lon="-85.2065370001">
        <ele>205.190006</ele>
        <time>2024-06-09T09:29:24.000Z</time>
      </trkpt>
      <trkpt lat="42.9296143405" lon="-85.2074560001">
        <ele>204.499999</ele>
        <time>2024-06-09T09:29:31.000Z</time>
      </trkpt>
      <trkpt lat="42.92962" lon="-85.208368">
        <ele>203.490007</ele>
        <time>2024-06-09T09:29:38.000Z</time>
      </trkpt>
      <trkpt lat="42.9295950063" lon="-85.2095670005">
        <ele>200.680001</ele>
        <time>2024-06-09T09:29:48.000Z</time>
      </trkpt>
      <trkpt lat="42.929552" lon="-85.210772">
        <ele>199.319998</ele>
        <time>2024-06-09T09:29:58.000Z</time>
      </trkpt>
      <trkpt lat="42.9295426728" lon="-85.2116086673">
        <ele>197.879992</ele>
        <time>2024-06-09T09:30:05.000Z</time>
      </trkpt>
      <trkpt lat="42.9295153394" lon="-85.212449334">
        <ele>196.749992</ele>
        <time>2024-06-09T09:30:12.000Z</time>
      </trkpt>
      <trkpt lat="42.929486" lon="-85.213271">
        <ele>196.170003</ele>
        <time>2024-06-09T09:30:19.000Z</time>
      </trkpt>
      <trkpt lat="42.9295000128" lon="-85.214495333">
        <ele>195.059998</ele>
        <time>2024-06-09T09:30:29.000Z</time>
      </trkpt>
      <trkpt lat="42.9295060128" lon="-85.2157026663">
        <ele>196.899996</ele>
        <time>2024-06-09T09:30:39.000Z</time>
      </trkpt>
      <trkpt lat="42.929529" lon="-85.216916">
        <ele>197.460002</ele>
        <time>2024-06-09T09:30:49.000Z</time>
      </trkpt>
      <trkpt lat="42.929519" lon="-85.216944">
        <ele>197.449996</ele>
        <time>2024-06-09T09:30:49.000Z</time>
      </trkpt>
      <trkpt lat="42.9295290017" lon="-85.2175889999">
        <ele>197.669998</ele>
        <time>2024-06-09T09:30:54.000Z</time>
      </trkpt>
      <trkpt lat="42.929521" lon="-85.218216">
        <ele>198.150009</ele>
        <time>2024-06-09T09:30:59.000Z</time>
      </trkpt>
      <trkpt lat="42.9288846667" lon="-85.2182130002">
        <ele>200.900006</ele>
        <time>2024-06-09T09:31:06.000Z</time>
      </trkpt>
      <trkpt lat="42.9282373333" lon="-85.2182390002">
        <ele>203.080003</ele>
        <time>2024-06-09T09:31:13.000Z</time>
      </trkpt>
      <trkpt lat="42.927609" lon="-85.218238">
        <ele>204.529992</ele>
        <time>2024-06-09T09:31:20.000Z</time>
      </trkpt>
      <trkpt lat="42.9275140036" lon="-85.2191460013">
        <ele>204.130004</ele>
        <time>2024-06-09T09:31:27.000Z</time>
      </trkpt>
      <trkpt lat="42.927416" lon="-85.220065">
        <ele>204.299991</ele>
        <time>2024-06-09T09:31:35.000Z</time>
      </trkpt>
      <trkpt lat="42.927306" lon="-85.220633">
        <ele>204.209996</ele>
        <time>2024-06-09T09:31:40.000Z</time>
      </trkpt>
      <trkpt lat="42.927304" lon="-85.220651">
        <ele>204.209999</ele>
        <time>2024-06-09T09:31:40.000Z</time>
      </trkpt>
      <trkpt lat="42.927241" lon="-85.220989">
        <ele>204.179997</ele>
        <time>2024-06-09T09:31:43.000Z</time>
      </trkpt>
      <trkpt lat="42.9270410021" lon="-85.2216810021">
        <ele>204.230006</ele>
        <time>2024-06-09T09:31:49.000Z</time>
      </trkpt>
      <trkpt lat="42.926855" lon="-85.222364">
        <ele>203.970009</ele>
        <time>2024-06-09T09:31:55.000Z</time>
      </trkpt>
      <trkpt lat="42.9265572815" lon="-85.2233815334">
        <ele>203.030007</ele>
        <time>2024-06-09T09:32:04.000Z</time>
      </trkpt>
      <trkpt lat="42.9262775541" lon="-85.2243940572">
        <ele>201.519999</ele>
        <time>2024-06-09T09:32:13.000Z</time>
      </trkpt>
      <trkpt lat="42.9259748176" lon="-85.2254095716">
        <ele>200.769998</ele>
        <time>2024-06-09T09:32:22.000Z</time>
      </trkpt>
      <trkpt lat="42.9256910721" lon="-85.2264270763">
        <ele>200.239997</ele>
        <time>2024-06-09T09:32:31.000Z</time>
      </trkpt>
      <trkpt lat="42.9254113176" lon="-85.2274405716">
        <ele>200.100008</ele>
        <time>2024-06-09T09:32:40.000Z</time>
      </trkpt>
      <trkpt lat="42.9251085541" lon="-85.2284610573">
        <ele>199.520005</ele>
        <time>2024-06-09T09:32:49.000Z</time>
      </trkpt>
      <trkpt lat="42.9248297815" lon="-85.2294815334">
        <ele>198.830005</ele>
        <time>2024-06-09T09:32:58.000Z</time>
      </trkpt>
      <trkpt lat="42.92454" lon="-85.230505">
        <ele>197.870007</ele>
        <time>2024-06-09T09:33:07.000Z</time>
      </trkpt>
      <trkpt lat="42.924485" lon="-85.230837">
        <ele>197.569996</ele>
        <time>2024-06-09T09:33:10.000Z</time>
      </trkpt>
      <trkpt lat="42.9244380049" lon="-85.2318950007">
        <ele>197.009996</ele>
        <time>2024-06-09T09:33:19.000Z</time>
      </trkpt>
      <trkpt lat="42.924391" lon="-85.232955">
        <ele>196.060008</ele>
        <time>2024-06-09T09:33:28.000Z</time>
      </trkpt>
      <trkpt lat="42.9243460036" lon="-85.2338690006">
        <ele>195.629995</ele>
        <time>2024-06-09T09:33:35.000Z</time>
      </trkpt>
      <trkpt lat="42.924271" lon="-85.234783">
        <ele>195.600009</ele>
        <time>2024-06-09T09:33:42.000Z</time>
      </trkpt>
      <trkpt lat="42.924227" lon="-85.235477">
        <ele>195.759996</ele>
        <time>2024-06-09T09:33:48.000Z</time>
      </trkpt>
      <trkpt lat="42.9241330027" lon="-85.2362490012">
        <ele>196.129998</ele>
        <time>2024-06-09T09:33:54.000Z</time>
      </trkpt>
      <trkpt lat="42.924032" lon="-85.237033">
        <ele>196.249992</ele>
        <time>2024-06-09T09:34:00.000Z</time>
      </trkpt>
      <trkpt lat="42.923962" lon="-85.238035">
        <ele>195.730006</ele>
        <time>2024-06-09T09:34:08.000Z</time>
      </trkpt>
      <trkpt lat="42.923942" lon="-85.23864">
        <ele>195.519992</ele>
        <time>2024-06-09T09:34:13.000Z</time>
      </trkpt>
      <trkpt lat="42.9239510041" lon="-85.2396069997">
        <ele>195.520007</ele>
        <time>2024-06-09T09:34:21.000Z</time>
      </trkpt>
      <trkpt lat="42.923965" lon="-85.240573">
        <ele>195.839994</ele>
        <time>2024-06-09T09:34:29.000Z</time>
      </trkpt>
      <trkpt lat="42.9240183424" lon="-85.2416029983">
        <ele>196.090004</ele>
        <time>2024-06-09T09:34:37.000Z</time>
      </trkpt>
      <trkpt lat="42.9240826757" lon="-85.2426249983">
        <ele>196.680009</ele>
        <time>2024-06-09T09:34:45.000Z</time>
      </trkpt>
      <trkpt lat="42.924123" lon="-85.243632">
        <ele>196.919991</ele>
        <time>2024-06-09T09:34:53.000Z</time>
      </trkpt>
      <trkpt lat="42.924172" lon="-85.244849">
        <ele>197.320007</ele>
        <time>2024-06-09T09:35:03.000Z</time>
      </trkpt>
      <trkpt lat="42.9242120148" lon="-85.2459239979">
        <ele>197.089995</ele>
        <time>2024-06-09T09:35:12.000Z</time>
      </trkpt>
      <trkpt lat="42.9242630197" lon="-85.2469849972">
        <ele>197.069999</ele>
        <time>2024-06-09T09:35:21.000Z</time>
      </trkpt>
      <trkpt lat="42.9243000148" lon="-85.2480419978">
        <ele>196.569994</ele>
        <time>2024-06-09T09:35:30.000Z</time>
      </trkpt>
      <trkpt lat="42.924342" lon="-85.249104">
        <ele>195.740008</ele>
        <time>2024-06-09T09:35:39.000Z</time>
      </trkpt>
      <trkpt lat="42.924351" lon="-85.250157">
        <ele>195.860001</ele>
        <time>2024-06-09T09:35:48.000Z</time>
      </trkpt>
      <trkpt lat="42.924298" lon="-85.250611">
        <ele>196.270006</ele>
        <time>2024-06-09T09:35:52.000Z</time>
      </trkpt>
      <trkpt lat="42.924226" lon="-85.251045">
        <ele>197.120003</ele>
        <time>2024-06-09T09:35:56.000Z</time>
      </trkpt>
      <trkpt lat="42.9240530017" lon="-85.2516670016">
        <ele>197.889997</ele>
        <time>2024-06-09T09:36:01.000Z</time>
      </trkpt>
      <trkpt lat="42.923899" lon="-85.252291">
        <ele>198.110007</ele>
        <time>2024-06-09T09:36:06.000Z</time>
      </trkpt>
      <trkpt lat="42.923828" lon="-85.252926">
        <ele>198.149993</ele>
        <time>2024-06-09T09:36:11.000Z</time>
      </trkpt>
      <trkpt lat="42.923814" lon="-85.254124">
        <ele>197.92</ele>
        <time>2024-06-09T09:36:21.000Z</time>
      </trkpt>
      <trkpt lat="42.9238380024" lon="-85.254873">
        <ele>197.980003</ele>
        <time>2024-06-09T09:36:27.000Z</time>
      </trkpt>
      <trkpt lat="42.923844" lon="-85.255623">
        <ele>198.71</ele>
        <time>2024-06-09T09:36:33.000Z</time>
      </trkpt>
      <trkpt lat="42.9238680056" lon="-85.2567589998">
        <ele>199.879997</ele>
        <time>2024-06-09T09:36:42.000Z</time>
      </trkpt>
      <trkpt lat="42.923896" lon="-85.257875">
        <ele>200.760009</ele>
        <time>2024-06-09T09:36:51.000Z</time>
      </trkpt>
      <trkpt lat="42.9239100017" lon="-85.2585039998">
        <ele>201.079994</ele>
        <time>2024-06-09T09:36:56.000Z</time>
      </trkpt>
      <trkpt lat="42.923936" lon="-85.259129">
        <ele>201.160004</ele>
        <time>2024-06-09T09:37:01.000Z</time>
      </trkpt>
      <trkpt lat="42.9240013417" lon="-85.260109998">
        <ele>200.889997</ele>
        <time>2024-06-09T09:37:09.000Z</time>
      </trkpt>
      <trkpt lat="42.924057675" lon="-85.2610869981">
        <ele>200.099993</ele>
        <time>2024-06-09T09:37:17.000Z</time>
      </trkpt>
      <trkpt lat="42.924138" lon="-85.262062">
        <ele>199.240005</ele>
        <time>2024-06-09T09:37:25.000Z</time>
      </trkpt>
      <trkpt lat="42.9241880134" lon="-85.2630854973">
        <ele>197.830002</ele>
        <time>2024-06-09T09:37:33.000Z</time>
      </trkpt>
      <trkpt lat="42.9242490178" lon="-85.2640869964">
        <ele>197.009999</ele>
        <time>2024-06-09T09:37:41.000Z</time>
      </trkpt>
      <trkpt lat="42.9242940134" lon="-85.2651154973">
        <ele>196.120002</ele>
        <time>2024-06-09T09:37:49.000Z</time>
      </trkpt>
      <trkpt lat="42.924352" lon="-85.266116">
        <ele>196.349997</ele>
        <time>2024-06-09T09:37:57.000Z</time>
      </trkpt>
      <trkpt lat="42.9244120024" lon="-85.2668639993">
        <ele>196.909994</ele>
        <time>2024-06-09T09:38:03.000Z</time>
      </trkpt>
      <trkpt lat="42.924462" lon="-85.267607">
        <ele>197.900006</ele>
        <time>2024-06-09T09:38:09.000Z</time>
      </trkpt>
      <trkpt lat="42.924521" lon="-85.268086">
        <ele>198.239996</ele>
        <time>2024-06-09T09:38:13.000Z</time>
      </trkpt>
      <trkpt lat="42.9247100142" lon="-85.2691264903">
        <ele>198.630004</ele>
        <time>2024-06-09T09:38:22.000Z</time>
      </trkpt>
      <trkpt lat="42.9249050189" lon="-85.2701719871">
        <ele>198.899994</ele>
        <time>2024-06-09T09:38:31.000Z</time>
      </trkpt>
      <trkpt lat="42.9250920142" lon="-85.2712244902">
        <ele>198.909993</ele>
        <time>2024-06-09T09:38:40.000Z</time>
      </trkpt>
      <trkpt lat="42.925273" lon="-85.272253">
        <ele>198.929991</ele>
        <time>2024-06-09T09:38:49.000Z</time>
      </trkpt>
      <trkpt lat="42.925348" lon="-85.272779">
        <ele>198.950006</ele>
        <time>2024-06-09T09:38:53.000Z</time>
      </trkpt>
      <trkpt lat="42.925384" lon="-85.273507">
        <ele>198.739994</ele>
        <time>2024-06-09T09:38:59.000Z</time>
      </trkpt>
      <trkpt lat="42.925364" lon="-85.274163">
        <ele>198.739999</ele>
        <time>2024-06-09T09:39:04.000Z</time>
      </trkpt>
      <trkpt lat="42.9252960034" lon="-85.275051001">
        <ele>198.340004</ele>
        <time>2024-06-09T09:39:11.000Z</time>
      </trkpt>
      <trkpt lat="42.925211" lon="-85.275934">
        <ele>198.030003</ele>
        <time>2024-06-09T09:39:18.000Z</time>
      </trkpt>
      <trkpt lat="42.925248" lon="-85.276207">
        <ele>198.030002</ele>
        <time>2024-06-09T09:39:20.000Z</time>
      </trkpt>
      <trkpt lat="42.9254913556" lon="-85.2772196463">
        <ele>197.599992</ele>
        <time>2024-06-09T09:39:29.000Z</time>
      </trkpt>
      <trkpt lat="42.9257287023" lon="-85.2782213007">
        <ele>197.559998</ele>
        <time>2024-06-09T09:39:38.000Z</time>
      </trkpt>
      <trkpt lat="42.9259920401" lon="-85.2792379633">
        <ele>197.120008</ele>
        <time>2024-06-09T09:39:47.000Z</time>
      </trkpt>
      <trkpt lat="42.926224369" lon="-85.280237634">
        <ele>196.599999</ele>
        <time>2024-06-09T09:39:56.000Z</time>
      </trkpt>
      <trkpt lat="42.9264786889" lon="-85.2812643129">
        <ele>196.53</ele>
        <time>2024-06-09T09:40:05.000Z</time>
      </trkpt>
      <trkpt lat="42.926726" lon="-85.282269">
        <ele>196.970004</ele>
        <time>2024-06-09T09:40:14.000Z</time>
      </trkpt>
      <trkpt lat="42.9269320061" lon="-85.2831179945">
        <ele>197.020003</ele>
        <time>2024-06-09T09:40:21.000Z</time>
      </trkpt>
      <trkpt lat="42.9271360061" lon="-85.2839559944">
        <ele>196.669997</ele>
        <time>2024-06-09T09:40:28.000Z</time>
      </trkpt>
      <trkpt lat="42.927337" lon="-85.284786">
        <ele>195.710009</ele>
        <time>2024-06-09T09:40:35.000Z</time>
      </trkpt>
      <trkpt lat="42.927482" lon="-85.285292">
        <ele>195.400004</ele>
        <time>2024-06-09T09:40:39.000Z</time>
      </trkpt>
      <trkpt lat="42.9277630027" lon="-85.2860869964">
        <ele>195.230005</ele>
        <time>2024-06-09T09:40:46.000Z</time>
      </trkpt>
      <trkpt lat="42.928033" lon="-85.286879">
        <ele>195.519996</ele>
        <time>2024-06-09T09:40:53.000Z</time>
      </trkpt>
      <trkpt lat="42.9282090016" lon="-85.2874879981">
        <ele>195.800009</ele>
        <time>2024-06-09T09:40:58.000Z</time>
      </trkpt>
      <trkpt lat="42.928395" lon="-85.288094">
        <ele>195.999994</ele>
        <time>2024-06-09T09:41:03.000Z</time>
      </trkpt>
      <trkpt lat="42.928602" lon="-85.289098">
        <ele>196.639997</ele>
        <time>2024-06-09T09:41:11.000Z</time>
      </trkpt>
      <trkpt lat="42.9287991702" lon="-85.2901088385">
        <ele>197.039994</ele>
        <time>2024-06-09T09:41:20.000Z</time>
      </trkpt>
      <trkpt lat="42.9289893312" lon="-85.2911356832">
        <ele>197.030003</ele>
        <time>2024-06-09T09:41:29.000Z</time>
      </trkpt>
      <trkpt lat="42.9291634832" lon="-85.2921505341">
        <ele>196.799992</ele>
        <time>2024-06-09T09:41:37.000Z</time>
      </trkpt>
      <trkpt lat="42.9293596261" lon="-85.2931833912">
        <ele>196.179992</ele>
        <time>2024-06-09T09:41:46.000Z</time>
      </trkpt>
      <trkpt lat="42.9295367598" lon="-85.2941952546">
        <ele>196.049999</ele>
        <time>2024-06-09T09:41:54.000Z</time>
      </trkpt>
      <trkpt lat="42.9297348845" lon="-85.2952331241">
        <ele>196.049999</ele>
        <time>2024-06-09T09:42:03.000Z</time>
      </trkpt>
      <trkpt lat="42.929911" lon="-85.296257">
        <ele>195.969993</ele>
        <time>2024-06-09T09:42:12.000Z</time>
      </trkpt>
      <trkpt lat="42.9300290021" lon="-85.2969539986">
        <ele>195.919999</ele>
        <time>2024-06-09T09:42:18.000Z</time>
      </trkpt>
      <trkpt lat="42.930134" lon="-85.297642">
        <ele>196.040001</ele>
        <time>2024-06-09T09:42:24.000Z</time>
      </trkpt>
      <trkpt lat="42.930222" lon="-85.298411">
        <ele>196.15</ele>
        <time>2024-06-09T09:42:30.000Z</time>
      </trkpt>
      <trkpt lat="42.930277" lon="-85.299476">
        <ele>196.28</ele>
        <time>2024-06-09T09:42:39.000Z</time>
      </trkpt>
      <trkpt lat="42.9302930033" lon="-85.3003509998">
        <ele>196.319998</ele>
        <time>2024-06-09T09:42:46.000Z</time>
      </trkpt>
      <trkpt lat="42.930284" lon="-85.30122">
        <ele>196.329998</ele>
        <time>2024-06-09T09:42:53.000Z</time>
      </trkpt>
      <trkpt lat="42.93027" lon="-85.302141">
        <ele>196.239991</ele>
        <time>2024-06-09T09:43:00.000Z</time>
      </trkpt>
      <trkpt lat="42.930222" lon="-85.302891">
        <ele>196.290008</ele>
        <time>2024-06-09T09:43:06.000Z</time>
      </trkpt>
      <trkpt lat="42.930199" lon="-85.303248">
        <ele>196.290006</ele>
        <time>2024-06-09T09:43:09.000Z</time>
      </trkpt>
      <trkpt lat="42.9301076729" lon="-85.3040990027">
        <ele>196.26</ele>
        <time>2024-06-09T09:43:16.000Z</time>
      </trkpt>
      <trkpt lat="42.9300063396" lon="-85.3049460029">
        <ele>196.150007</ele>
        <time>2024-06-09T09:43:23.000Z</time>
      </trkpt>
      <trkpt lat="42.929915" lon="-85.305799">
        <ele>196.010005</ele>
        <time>2024-06-09T09:43:30.000Z</time>
      </trkpt>
      <trkpt lat="42.9298180125" lon="-85.3067710053">
        <ele>195.919999</ele>
        <time>2024-06-09T09:43:38.000Z</time>
      </trkpt>
      <trkpt lat="42.9297090167" lon="-85.3077550071">
        <ele>195.980009</ele>
        <time>2024-06-09T09:43:46.000Z</time>
      </trkpt>
      <trkpt lat="42.9295950125" lon="-85.3087340054">
        <ele>196.100009</ele>
        <time>2024-06-09T09:43:54.000Z</time>
      </trkpt>
      <trkpt lat="42.929476" lon="-85.309704">
        <ele>196.160006</ele>
        <time>2024-06-09T09:44:02.000Z</time>
      </trkpt>
      <trkpt lat="42.9294270034" lon="-85.3105970009">
        <ele>195.890009</ele>
        <time>2024-06-09T09:44:09.000Z</time>
      </trkpt>
      <trkpt lat="42.929368" lon="-85.311484">
        <ele>195.590001</ele>
        <time>2024-06-09T09:44:16.000Z</time>
      </trkpt>
      <trkpt lat="42.929368" lon="-85.311713">
        <ele>195.480009</ele>
        <time>2024-06-09T09:44:18.000Z</time>
      </trkpt>
      <trkpt lat="42.929438" lon="-85.312019">
        <ele>195.419998</ele>
        <time>2024-06-09T09:44:21.000Z</time>
      </trkpt>
      <trkpt lat="42.929443" lon="-85.312302">
        <ele>195.420002</ele>
        <time>2024-06-09T09:44:23.000Z</time>
      </trkpt>
      <trkpt lat="42.9294443673" lon="-85.313506717">
        <ele>194.510006</ele>
        <time>2024-06-09T09:44:33.000Z</time>
      </trkpt>
      <trkpt lat="42.929429722" lon="-85.3147044336">
        <ele>194.590005</ele>
        <time>2024-06-09T09:44:43.000Z</time>
      </trkpt>
      <trkpt lat="42.9294260642" lon="-85.3159051497">
        <ele>194.549997</ele>
        <time>2024-06-09T09:44:53.000Z</time>
      </trkpt>
      <trkpt lat="42.9294103938" lon="-85.3171078655">
        <ele>194.400004</ele>
        <time>2024-06-09T09:45:03.000Z</time>
      </trkpt>
      <trkpt lat="42.9293977109" lon="-85.3183125808">
        <ele>194.570007</ele>
        <time>2024-06-09T09:45:13.000Z</time>
      </trkpt>
      <trkpt lat="42.9293880154" lon="-85.3195122957">
        <ele>194.280003</ele>
        <time>2024-06-09T09:45:23.000Z</time>
      </trkpt>
      <trkpt lat="42.9293673074" lon="-85.3207130102">
        <ele>194.259997</ele>
        <time>2024-06-09T09:45:33.000Z</time>
      </trkpt>
      <trkpt lat="42.9293655869" lon="-85.3219147243">
        <ele>194.630005</ele>
        <time>2024-06-09T09:45:43.000Z</time>
      </trkpt>
      <trkpt lat="42.9293508538" lon="-85.323115438">
        <ele>194.199999</ele>
        <time>2024-06-09T09:45:53.000Z</time>
      </trkpt>
      <trkpt lat="42.9293381081" lon="-85.3242991512">
        <ele>193.240008</ele>
        <time>2024-06-09T09:46:03.000Z</time>
      </trkpt>
      <trkpt lat="42.9293353499" lon="-85.325508864">
        <ele>192.440004</ele>
        <time>2024-06-09T09:46:13.000Z</time>
      </trkpt>
      <trkpt lat="42.9293215792" lon="-85.3267155764">
        <ele>192.169991</ele>
        <time>2024-06-09T09:46:23.000Z</time>
      </trkpt>
      <trkpt lat="42.9293147959" lon="-85.3279132884">
        <ele>192.000002</ele>
        <time>2024-06-09T09:46:33.000Z</time>
      </trkpt>
      <trkpt lat="42.929299" lon="-85.32911">
        <ele>191.860006</ele>
        <time>2024-06-09T09:46:43.000Z</time>
      </trkpt>
      <trkpt lat="42.929298" lon="-85.329095">
        <ele>191.860006</ele>
        <time>2024-06-09T09:46:43.000Z</time>
      </trkpt>
      <trkpt lat="42.929287" lon="-85.330095">
        <ele>191.740008</ele>
        <time>2024-06-09T09:46:51.000Z</time>
      </trkpt>
      <trkpt lat="42.929256" lon="-85.330277">
        <ele>191.829999</ele>
        <time>2024-06-09T09:46:53.000Z</time>
      </trkpt>
      <trkpt lat="42.929191" lon="-85.330485">
        <ele>192.090006</ele>
        <time>2024-06-09T09:46:55.000Z</time>
      </trkpt>
      <trkpt lat="42.929105" lon="-85.330686">
        <ele>192.300007</ele>
        <time>2024-06-09T09:46:57.000Z</time>
      </trkpt>
      <trkpt lat="42.928865" lon="-85.331048">
        <ele>192.940005</ele>
        <time>2024-06-09T09:47:01.000Z</time>
      </trkpt>
      <trkpt lat="42.928792" lon="-85.331188">
        <ele>193.470006</ele>
        <time>2024-06-09T09:47:02.000Z</time>
      </trkpt>
      <trkpt lat="42.928741" lon="-85.331462">
        <ele>193.929995</ele>
        <time>2024-06-09T09:47:04.000Z</time>
      </trkpt>
      <trkpt lat="42.928549" lon="-85.331454">
        <ele>193.360008</ele>
        <time>2024-06-09T09:47:06.000Z</time>
      </trkpt>
      <trkpt lat="42.9277373334" lon="-85.3315056679">
        <ele>193.230006</ele>
        <time>2024-06-09T09:47:15.000Z</time>
      </trkpt>
      <trkpt lat="42.9269476668" lon="-85.3315363345">
        <ele>194.640002</ele>
        <time>2024-06-09T09:47:24.000Z</time>
      </trkpt>
      <trkpt lat="42.926154" lon="-85.331594">
        <ele>195.879994</ele>
        <time>2024-06-09T09:47:33.000Z</time>
      </trkpt>
      <trkpt lat="42.926093" lon="-85.331789">
        <ele>195.860009</ele>
        <time>2024-06-09T09:47:35.000Z</time>
      </trkpt>
      <trkpt lat="42.9257426767" lon="-85.3328573457">
        <ele>195.81</ele>
        <time>2024-06-09T09:47:45.000Z</time>
      </trkpt>
      <trkpt lat="42.9254003434" lon="-85.333927679">
        <ele>194.709995</ele>
        <time>2024-06-09T09:47:55.000Z</time>
      </trkpt>
      <trkpt lat="42.925034" lon="-85.334995">
        <ele>193.930006</ele>
        <time>2024-06-09T09:48:05.000Z</time>
      </trkpt>
      <trkpt lat="42.924874" lon="-85.335574">
        <ele>195.369998</ele>
        <time>2024-06-09T09:48:10.000Z</time>
      </trkpt>
      <trkpt lat="42.924819" lon="-85.335922">
        <ele>196.130008</ele>
        <time>2024-06-09T09:48:13.000Z</time>
      </trkpt>
      <trkpt lat="42.924733" lon="-85.336595">
        <ele>196.930002</ele>
        <time>2024-06-09T09:48:19.000Z</time>
      </trkpt>
      <trkpt lat="42.924711008" lon="-85.3375420009">
        <ele>196.720008</ele>
        <time>2024-06-09T09:48:27.000Z</time>
      </trkpt>
      <trkpt lat="42.924674008" lon="-85.3385190008">
        <ele>197.319992</ele>
        <time>2024-06-09T09:48:35.000Z</time>
      </trkpt>
      <trkpt lat="42.924645" lon="-85.339477">
        <ele>197.849998</ele>
        <time>2024-06-09T09:48:43.000Z</time>
      </trkpt>
      <trkpt lat="42.924611" lon="-85.339852">
        <ele>197.400002</ele>
        <time>2024-06-09T09:48:46.000Z</time>
      </trkpt>
      <trkpt lat="42.924565" lon="-85.340175">
        <ele>197.259993</ele>
        <time>2024-06-09T09:48:49.000Z</time>
      </trkpt>
      <trkpt lat="42.9243530058" lon="-85.3409940056">
        <ele>196.250003</ele>
        <time>2024-06-09T09:48:56.000Z</time>
      </trkpt>
      <trkpt lat="42.9241390058" lon="-85.3418110056">
        <ele>195.059991</ele>
        <time>2024-06-09T09:49:03.000Z</time>
      </trkpt>
      <trkpt lat="42.923927" lon="-85.342624">
        <ele>195.959994</ele>
        <time>2024-06-09T09:49:10.000Z</time>
      </trkpt>
      <trkpt lat="42.9237360029" lon="-85.3434520025">
        <ele>196.000002</ele>
        <time>2024-06-09T09:49:17.000Z</time>
      </trkpt>
      <trkpt lat="42.923557" lon="-85.344262">
        <ele>193.649998</ele>
        <time>2024-06-09T09:49:24.000Z</time>
      </trkpt>
      <trkpt lat="42.9232886752" lon="-85.3452553415">
        <ele>192.370006</ele>
        <time>2024-06-09T09:49:33.000Z</time>
      </trkpt>
      <trkpt lat="42.9230493419" lon="-85.3462576749">
        <ele>192.599991</ele>
        <time>2024-06-09T09:49:42.000Z</time>
      </trkpt>
      <trkpt lat="42.922787" lon="-85.347244">
        <ele>194.290001</ele>
        <time>2024-06-09T09:49:51.000Z</time>
      </trkpt>
      <trkpt lat="42.9226150068" lon="-85.3481376716">
        <ele>197.900009</ele>
        <time>2024-06-09T09:49:59.000Z</time>
      </trkpt>
      <trkpt lat="42.9224530068" lon="-85.3490203383">
        <ele>198.430001</ele>
        <time>2024-06-09T09:50:06.000Z</time>
      </trkpt>
      <trkpt lat="42.922271" lon="-85.349903">
        <ele>197.549994</ele>
        <time>2024-06-09T09:50:13.000Z</time>
      </trkpt>
      <trkpt lat="42.9220956726" lon="-85.3507420053">
        <ele>197.690007</ele>
        <time>2024-06-09T09:50:20.000Z</time>
      </trkpt>
      <trkpt lat="42.9218963393" lon="-85.3515740054">
        <ele>198.16</ele>
        <time>2024-06-09T09:50:27.000Z</time>
      </trkpt>
      <trkpt lat="42.921706" lon="-85.352395">
        <ele>197.850005</ele>
        <time>2024-06-09T09:50:34.000Z</time>
      </trkpt>
      <trkpt lat="42.921523004" lon="-85.3533550029">
        <ele>195.920006</ele>
        <time>2024-06-09T09:50:42.000Z</time>
      </trkpt>
      <trkpt lat="42.921338" lon="-85.35431">
        <ele>194.849996</ele>
        <time>2024-06-09T09:50:50.000Z</time>
      </trkpt>
      <trkpt lat="42.921186" lon="-85.355437">
        <ele>194.440008</ele>
        <time>2024-06-09T09:50:59.000Z</time>
      </trkpt>
      <trkpt lat="42.9211220024" lon="-85.3561810007">
        <ele>194.460005</ele>
        <time>2024-06-09T09:51:05.000Z</time>
      </trkpt>
      <trkpt lat="42.921048" lon="-85.35692">
        <ele>194.469991</ele>
        <time>2024-06-09T09:51:11.000Z</time>
      </trkpt>
      <trkpt lat="42.9210190026" lon="-85.3576860003">
        <ele>194.399995</ele>
        <time>2024-06-09T09:51:17.000Z</time>
      </trkpt>
      <trkpt lat="42.920997" lon="-85.358462">
        <ele>194.540006</ele>
        <time>2024-06-09T09:51:23.000Z</time>
      </trkpt>
      <trkpt lat="42.921004" lon="-85.359296">
        <ele>195.699991</ele>
        <time>2024-06-09T09:51:30.000Z</time>
      </trkpt>
      <trkpt lat="42.9210830047" lon="-85.3603359989">
        <ele>197.840005</ele>
        <time>2024-06-09T09:51:39.000Z</time>
      </trkpt>
      <trkpt lat="42.921154" lon="-85.361363">
        <ele>197.780006</ele>
        <time>2024-06-09T09:51:47.000Z</time>
      </trkpt>
      <trkpt lat="42.921248014" lon="-85.3623999947">
        <ele>196.889992</ele>
        <time>2024-06-09T09:51:56.000Z</time>
      </trkpt>
      <trkpt lat="42.9213530186" lon="-85.363439993">
        <ele>196.500004</ele>
        <time>2024-06-09T09:52:05.000Z</time>
      </trkpt>
      <trkpt lat="42.921474014" lon="-85.3644809947">
        <ele>197.249992</ele>
        <time>2024-06-09T09:52:14.000Z</time>
      </trkpt>
      <trkpt lat="42.921567" lon="-85.365514">
        <ele>196.809993</ele>
        <time>2024-06-09T09:52:22.000Z</time>
      </trkpt>
      <trkpt lat="42.9216730098" lon="-85.3665673299">
        <ele>196.450006</ele>
        <time>2024-06-09T09:52:31.000Z</time>
      </trkpt>
      <trkpt lat="42.9217620098" lon="-85.3676386633">
        <ele>195.509998</ele>
        <time>2024-06-09T09:52:40.000Z</time>
      </trkpt>
      <trkpt lat="42.921866" lon="-85.368696">
        <ele>195.210005</ele>
        <time>2024-06-09T09:52:49.000Z</time>
      </trkpt>
      <trkpt lat="42.9219500239" lon="-85.3698629933">
        <ele>195.399991</ele>
        <time>2024-06-09T09:52:59.000Z</time>
      </trkpt>
      <trkpt lat="42.9220520359" lon="-85.3710499899">
        <ele>196.849999</ele>
        <time>2024-06-09T09:53:09.000Z</time>
      </trkpt>
      <trkpt lat="42.9221330359" lon="-85.3722229899">
        <ele>197.340004</ele>
        <time>2024-06-09T09:53:19.000Z</time>
      </trkpt>
      <trkpt lat="42.9222250239" lon="-85.3733929933">
        <ele>196.920006</ele>
        <time>2024-06-09T09:53:29.000Z</time>
      </trkpt>
      <trkpt lat="42.922308" lon="-85.374565">
        <ele>196.169992</ele>
        <time>2024-06-09T09:53:39.000Z</time>
      </trkpt>
      <trkpt lat="42.922306" lon="-85.374572">
        <ele>196.159996</ele>
        <time>2024-06-09T09:53:39.000Z</time>
      </trkpt>
      <trkpt lat="42.9223950052" lon="-85.3756569985">
        <ele>195.649993</ele>
        <time>2024-06-09T09:53:48.000Z</time>
      </trkpt>
      <trkpt lat="42.922461" lon="-85.376751">
        <ele>195.150006</ele>
        <time>2024-06-09T09:53:57.000Z</time>
      </trkpt>
      <trkpt lat="42.922461" lon="-85.377875">
        <ele>195.600003</ele>
        <time>2024-06-09T09:54:06.000Z</time>
      </trkpt>
      <trkpt lat="42.922401" lon="-85.378918">
        <ele>195.459999</ele>
        <time>2024-06-09T09:54:15.000Z</time>
      </trkpt>
      <trkpt lat="42.922352" lon="-85.379443">
        <ele>195.339997</ele>
        <time>2024-06-09T09:54:19.000Z</time>
      </trkpt>
      <trkpt lat="42.922188" lon="-85.380506">
        <ele>195.590005</ele>
        <time>2024-06-09T09:54:28.000Z</time>
      </trkpt>
      <trkpt lat="42.9220030037" lon="-85.3814220025">
        <ele>196.059993</ele>
        <time>2024-06-09T09:54:36.000Z</time>
      </trkpt>
      <trkpt lat="42.921829" lon="-85.382358">
        <ele>195.850005</ele>
        <time>2024-06-09T09:54:44.000Z</time>
      </trkpt>
      <trkpt lat="42.921721" lon="-85.382728">
        <ele>195.789991</ele>
        <time>2024-06-09T09:54:47.000Z</time>
      </trkpt>
      <trkpt lat="42.9214980027" lon="-85.3835280032">
        <ele>196.720003</ele>
        <time>2024-06-09T09:54:54.000Z</time>
      </trkpt>
      <trkpt lat="42.921264" lon="-85.384302">
        <ele>198.8</ele>
        <time>2024-06-09T09:55:01.000Z</time>
      </trkpt>
      <trkpt lat="42.921009" lon="-85.385448">
        <ele>199.519993</ele>
        <time>2024-06-09T09:55:11.000Z</time>
      </trkpt>
      <trkpt lat="42.920957" lon="-85.385846">
        <ele>199.809997</ele>
        <time>2024-06-09T09:55:14.000Z</time>
      </trkpt>
      <trkpt lat="42.92093" lon="-85.386265">
        <ele>199.860004</ele>
        <time>2024-06-09T09:55:17.000Z</time>
      </trkpt>
      <trkpt lat="42.9209190017" lon="-85.3868759999">
        <ele>199.740005</ele>
        <time>2024-06-09T09:55:22.000Z</time>
      </trkpt>
      <trkpt lat="42.920928" lon="-85.387496">
        <ele>199.700002</ele>
        <time>2024-06-09T09:55:27.000Z</time>
      </trkpt>
      <trkpt lat="42.9208530048" lon="-85.3885550013">
        <ele>199.789998</ele>
        <time>2024-06-09T09:55:36.000Z</time>
      </trkpt>
      <trkpt lat="42.920779" lon="-85.389616">
        <ele>200.02</ele>
        <time>2024-06-09T09:55:45.000Z</time>
      </trkpt>
      <trkpt lat="42.9207290018" lon="-85.3902530008">
        <ele>199.760002</ele>
        <time>2024-06-09T09:55:50.000Z</time>
      </trkpt>
      <trkpt lat="42.920661" lon="-85.390901">
        <ele>199.599994</ele>
        <time>2024-06-09T09:55:55.000Z</time>
      </trkpt>
      <trkpt lat="42.920544" lon="-85.391612">
        <ele>199.929993</ele>
        <time>2024-06-09T09:56:01.000Z</time>
      </trkpt>
      <trkpt lat="42.9203950027" lon="-85.3924090019">
        <ele>199.450004</ele>
        <time>2024-06-09T09:56:08.000Z</time>
      </trkpt>
      <trkpt lat="42.920244" lon="-85.393209">
        <ele>199.369997</ele>
        <time>2024-06-09T09:56:15.000Z</time>
      </trkpt>
      <trkpt lat="42.9201130016" lon="-85.3938170014">
        <ele>199.389998</ele>
        <time>2024-06-09T09:56:20.000Z</time>
      </trkpt>
      <trkpt lat="42.919968" lon="-85.394429">
        <ele>199.21</ele>
        <time>2024-06-09T09:56:25.000Z</time>
      </trkpt>
      <trkpt lat="42.919651" lon="-85.395568">
        <ele>200.119993</ele>
        <time>2024-06-09T09:56:35.000Z</time>
      </trkpt>
      <trkpt lat="42.919438" lon="-85.396269">
        <ele>201.009992</ele>
        <time>2024-06-09T09:56:41.000Z</time>
      </trkpt>
      <trkpt lat="42.9192630016" lon="-85.3968460013">
        <ele>202.28</ele>
        <time>2024-06-09T09:56:46.000Z</time>
      </trkpt>
      <trkpt lat="42.919098" lon="-85.397441">
        <ele>202.519995</ele>
        <time>2024-06-09T09:56:51.000Z</time>
      </trkpt>
      <trkpt lat="42.918825" lon="-85.39856">
        <ele>202.000007</ele>
        <time>2024-06-09T09:57:01.000Z</time>
      </trkpt>
      <trkpt lat="42.918655339" lon="-85.3993790044">
        <ele>201.810005</ele>
        <time>2024-06-09T09:57:08.000Z</time>
      </trkpt>
      <trkpt lat="42.9184906724" lon="-85.4001740043">
        <ele>200.680007</ele>
        <time>2024-06-09T09:57:15.000Z</time>
      </trkpt>
      <trkpt lat="42.918338" lon="-85.400985">
        <ele>200.300003</ele>
        <time>2024-06-09T09:57:22.000Z</time>
      </trkpt>
      <trkpt lat="42.918243" lon="-85.401264">
        <ele>200.310004</ele>
        <time>2024-06-09T09:57:25.000Z</time>
      </trkpt>
      <trkpt lat="42.917944" lon="-85.40202">
        <ele>200.360005</ele>
        <time>2024-06-09T09:57:32.000Z</time>
      </trkpt>
      <trkpt lat="42.917781" lon="-85.402523">
        <ele>199.619993</ele>
        <time>2024-06-09T09:57:36.000Z</time>
      </trkpt>
      <trkpt lat="42.917681" lon="-85.402895">
        <ele>199.029992</ele>
        <time>2024-06-09T09:57:39.000Z</time>
      </trkpt>
      <trkpt lat="42.9175350036" lon="-85.4038130024">
        <ele>199.419998</ele>
        <time>2024-06-09T09:57:47.000Z</time>
      </trkpt>
      <trkpt lat="42.917368" lon="-85.404725">
        <ele>200.060006</ele>
        <time>2024-06-09T09:57:55.000Z</time>
      </trkpt>
      <trkpt lat="42.917343" lon="-85.404965">
        <ele>200.380001</ele>
        <time>2024-06-09T09:57:57.000Z</time>
      </trkpt>
      <trkpt lat="42.917345" lon="-85.405641">
        <ele>200.280006</ele>
        <time>2024-06-09T09:58:03.000Z</time>
      </trkpt>
      <trkpt lat="42.9174630021" lon="-85.4063619986">
        <ele>199.199993</ele>
        <time>2024-06-09T09:58:09.000Z</time>
      </trkpt>
      <trkpt lat="42.917569" lon="-85.407066">
        <ele>197.939994</ele>
        <time>2024-06-09T09:58:15.000Z</time>
      </trkpt>
      <trkpt lat="42.9176670017" lon="-85.4076829992">
        <ele>197.080009</ele>
        <time>2024-06-09T09:58:20.000Z</time>
      </trkpt>
      <trkpt lat="42.917762" lon="-85.408307">
        <ele>196.169999</ele>
        <time>2024-06-09T09:58:25.000Z</time>
      </trkpt>
      <trkpt lat="42.917896" lon="-85.409473">
        <ele>194.919998</ele>
        <time>2024-06-09T09:58:35.000Z</time>
      </trkpt>
      <trkpt lat="42.917979" lon="-85.410555">
        <ele>194.350008</ele>
        <time>2024-06-09T09:58:44.000Z</time>
      </trkpt>
      <trkpt lat="42.917999" lon="-85.411631">
        <ele>195.329994</ele>
        <time>2024-06-09T09:58:53.000Z</time>
      </trkpt>
      <trkpt lat="42.9179900129" lon="-85.4126310002">
        <ele>195.679997</ele>
        <time>2024-06-09T09:59:01.000Z</time>
      </trkpt>
      <trkpt lat="42.9179960172" lon="-85.4136200003">
        <ele>195.710002</ele>
        <time>2024-06-09T09:59:09.000Z</time>
      </trkpt>
      <trkpt lat="42.9179870129" lon="-85.4146230002">
        <ele>196.140002</ele>
        <time>2024-06-09T09:59:17.000Z</time>
      </trkpt>
      <trkpt lat="42.917975" lon="-85.415606">
        <ele>196.700006</ele>
        <time>2024-06-09T09:59:25.000Z</time>
      </trkpt>
      <trkpt lat="42.917934" lon="-85.416304">
        <ele>197.039994</ele>
        <time>2024-06-09T09:59:31.000Z</time>
      </trkpt>
      <trkpt lat="42.9178130033" lon="-85.4171800017">
        <ele>197.329996</ele>
        <time>2024-06-09T09:59:38.000Z</time>
      </trkpt>
      <trkpt lat="42.917706" lon="-85.418041">
        <ele>198.459996</ele>
        <time>2024-06-09T09:59:45.000Z</time>
      </trkpt>
      <trkpt lat="42.9176460025" lon="-85.418805001">
        <ele>198.460002</ele>
        <time>2024-06-09T09:59:51.000Z</time>
      </trkpt>
      <trkpt lat="42.917593" lon="-85.419558">
        <ele>198.090009</ele>
        <time>2024-06-09T09:59:57.000Z</time>
      </trkpt>
      <trkpt lat="42.917619" lon="-85.420178">
        <ele>197.530008</ele>
        <time>2024-06-09T10:00:02.000Z</time>
      </trkpt>
      <trkpt lat="42.917727" lon="-85.421218">
        <ele>196.609997</ele>
        <time>2024-06-09T10:00:11.000Z</time>
      </trkpt>
      <trkpt lat="42.917836" lon="-85.422125">
        <ele>195.600001</ele>
        <time>2024-06-09T10:00:18.000Z</time>
      </trkpt>
      <trkpt lat="42.918016" lon="-85.422815">
        <ele>196.759996</ele>
        <time>2024-06-09T10:00:24.000Z</time>
      </trkpt>
      <trkpt lat="42.918105" lon="-85.423053">
        <ele>196.980007</ele>
        <time>2024-06-09T10:00:26.000Z</time>
      </trkpt>
      <trkpt lat="42.9184710026" lon="-85.4238239954">
        <ele>198.009995</ele>
        <time>2024-06-09T10:00:33.000Z</time>
      </trkpt>
      <trkpt lat="42.918826" lon="-85.424612">
        <ele>197.29</ele>
        <time>2024-06-09T10:00:41.000Z</time>
      </trkpt>
      <trkpt lat="42.919018" lon="-85.425214">
        <ele>196.739997</ele>
        <time>2024-06-09T10:00:46.000Z</time>
      </trkpt>
      <trkpt lat="42.919211" lon="-85.42619">
        <ele>196.040002</ele>
        <time>2024-06-09T10:00:54.000Z</time>
      </trkpt>
      <trkpt lat="42.9194020046" lon="-85.4272229971">
        <ele>195.429996</ele>
        <time>2024-06-09T10:01:03.000Z</time>
      </trkpt>
      <trkpt lat="42.919577" lon="-85.428241">
        <ele>195.540001</ele>
        <time>2024-06-09T10:01:12.000Z</time>
      </trkpt>
      <trkpt lat="42.9197830039" lon="-85.4291889971">
        <ele>195.310004</ele>
        <time>2024-06-09T10:01:20.000Z</time>
      </trkpt>
      <trkpt lat="42.91998" lon="-85.430126">
        <ele>195.730005</ele>
        <time>2024-06-09T10:01:28.000Z</time>
      </trkpt>
      <trkpt lat="42.920188" lon="-85.430924">
        <ele>194.819991</ele>
        <time>2024-06-09T10:01:35.000Z</time>
      </trkpt>
      <trkpt lat="42.920545" lon="-85.43196">
        <ele>194.779997</ele>
        <time>2024-06-09T10:01:44.000Z</time>
      </trkpt>
      <trkpt lat="42.9209200038" lon="-85.4328989944">
        <ele>196.170005</ele>
        <time>2024-06-09T10:01:53.000Z</time>
      </trkpt>
      <trkpt lat="42.921271" lon="-85.43383">
        <ele>196.600005</ele>
        <time>2024-06-09T10:02:02.000Z</time>
      </trkpt>
      <trkpt lat="42.9216140019" lon="-85.4345119964">
        <ele>196.379999</ele>
        <time>2024-06-09T10:02:09.000Z</time>
      </trkpt>
      <trkpt lat="42.921925" lon="-85.435175">
        <ele>195.969991</ele>
        <time>2024-06-09T10:02:15.000Z</time>
      </trkpt>
      <trkpt lat="42.9224320362" lon="-85.4361479303">
        <ele>195.570006</ele>
        <time>2024-06-09T10:02:25.000Z</time>
      </trkpt>
      <trkpt lat="42.9229190644" lon="-85.4370958761">
        <ele>194.340003</ele>
        <time>2024-06-09T10:02:34.000Z</time>
      </trkpt>
      <trkpt lat="42.9234140846" lon="-85.4380708374">
        <ele>193.729995</ele>
        <time>2024-06-09T10:02:44.000Z</time>
      </trkpt>
      <trkpt lat="42.9239100967" lon="-85.4390358141">
        <ele>193.290008</ele>
        <time>2024-06-09T10:02:54.000Z</time>
      </trkpt>
      <trkpt lat="42.9244101007" lon="-85.4399878064">
        <ele>193.589991</ele>
        <time>2024-06-09T10:03:04.000Z</time>
      </trkpt>
      <trkpt lat="42.9249010967" lon="-85.4409598141">
        <ele>195.080008</ele>
        <time>2024-06-09T10:03:14.000Z</time>
      </trkpt>
      <trkpt lat="42.9254020846" lon="-85.4419218374">
        <ele>195.559992</ele>
        <time>2024-06-09T10:03:24.000Z</time>
      </trkpt>
      <trkpt lat="42.9258920644" lon="-85.4428828761">
        <ele>197.220003</ele>
        <time>2024-06-09T10:03:34.000Z</time>
      </trkpt>
      <trkpt lat="42.9263950363" lon="-85.4438359303">
        <ele>195.659994</ele>
        <time>2024-06-09T10:03:44.000Z</time>
      </trkpt>
      <trkpt lat="42.926882" lon="-85.444793">
        <ele>195.010006</ele>
        <time>2024-06-09T10:03:53.000Z</time>
      </trkpt>
      <trkpt lat="42.9274342519" lon="-85.4457202671">
        <ele>194.310009</ele>
        <time>2024-06-09T10:04:03.000Z</time>
      </trkpt>
      <trkpt lat="42.9279904964" lon="-85.4466515508">
        <ele>194.899991</ele>
        <time>2024-06-09T10:04:13.000Z</time>
      </trkpt>
      <trkpt lat="42.9285517335" lon="-85.447575851">
        <ele>194.510004</ele>
        <time>2024-06-09T10:04:23.000Z</time>
      </trkpt>
      <trkpt lat="42.9291069631" lon="-85.4484871678">
        <ele>194.019993</ele>
        <time>2024-06-09T10:04:33.000Z</time>
      </trkpt>
      <trkpt lat="42.9296591853" lon="-85.4494195011">
        <ele>192.830008</ele>
        <time>2024-06-09T10:04:43.000Z</time>
      </trkpt>
      <trkpt lat="42.9302084001" lon="-85.450339851">
        <ele>192.190004</ele>
        <time>2024-06-09T10:04:53.000Z</time>
      </trkpt>
      <trkpt lat="42.9307526075" lon="-85.4512602174">
        <ele>192.209992</ele>
        <time>2024-06-09T10:05:03.000Z</time>
      </trkpt>
      <trkpt lat="42.9313128075" lon="-85.4521846005">
        <ele>193.450005</ele>
        <time>2024-06-09T10:05:13.000Z</time>
      </trkpt>
      <trkpt lat="42.931856" lon="-85.453118">
        <ele>195.57</ele>
        <time>2024-06-09T10:05:23.000Z</time>
      </trkpt>
      <trkpt lat="42.932355673" lon="-85.4539606528">
        <ele>196.719991</ele>
        <time>2024-06-09T10:05:32.000Z</time>
      </trkpt>
      <trkpt lat="42.9328603397" lon="-85.4548263195">
        <ele>198.660004</ele>
        <time>2024-06-09T10:05:41.000Z</time>
      </trkpt>
      <trkpt lat="42.933358" lon="-85.455684">
        <ele>199.069997</ele>
        <time>2024-06-09T10:05:50.000Z</time>
      </trkpt>
      <trkpt lat="42.9337640041" lon="-85.4563629908">
        <ele>198.720007</ele>
        <time>2024-06-09T10:05:57.000Z</time>
      </trkpt>
      <trkpt lat="42.9341700041" lon="-85.4570599908">
        <ele>197.550006</ele>
        <time>2024-06-09T10:06:04.000Z</time>
      </trkpt>
      <trkpt lat="42.934579" lon="-85.457745">
        <ele>195.769993</ele>
        <time>2024-06-09T10:06:11.000Z</time>
      </trkpt>
      <trkpt lat="42.935029007" lon="-85.4584734841">
        <ele>195.149998</ele>
        <time>2024-06-09T10:06:19.000Z</time>
      </trkpt>
      <trkpt lat="42.9354620093" lon="-85.4592229787">
        <ele>194.990001</ele>
        <time>2024-06-09T10:06:27.000Z</time>
      </trkpt>
      <trkpt lat="42.9359160069" lon="-85.459947484">
        <ele>194.610001</ele>
        <time>2024-06-09T10:06:35.000Z</time>
      </trkpt>
      <trkpt lat="42.93636" lon="-85.460672">
        <ele>194.570009</ele>
        <time>2024-06-09T10:06:43.000Z</time>
      </trkpt>
      <trkpt lat="42.936631" lon="-85.461106">
        <ele>194.270008</ele>
        <time>2024-06-09T10:06:48.000Z</time>
      </trkpt>
      <trkpt lat="42.9371700315" lon="-85.4619879293">
        <ele>194.270008</ele>
        <time>2024-06-09T10:06:57.000Z</time>
      </trkpt>
      <trkpt lat="42.937699056" lon="-85.4628988744">
        <ele>194.590009</ele>
        <time>2024-06-09T10:07:06.000Z</time>
      </trkpt>
      <trkpt lat="42.9382430735" lon="-85.4637918351">
        <ele>194.760008</ele>
        <time>2024-06-09T10:07:15.000Z</time>
      </trkpt>
      <trkpt lat="42.938791084" lon="-85.4646958116">
        <ele>195.180009</ele>
        <time>2024-06-09T10:07:25.000Z</time>
      </trkpt>
      <trkpt lat="42.9393280875" lon="-85.4655838037">
        <ele>195.059993</ele>
        <time>2024-06-09T10:07:34.000Z</time>
      </trkpt>
      <trkpt lat="42.9398550841" lon="-85.4664898116">
        <ele>195.009997</ele>
        <time>2024-06-09T10:07:43.000Z</time>
      </trkpt>
      <trkpt lat="42.9404060735" lon="-85.4673698351">
        <ele>194.940003</ele>
        <time>2024-06-09T10:07:52.000Z</time>
      </trkpt>
      <trkpt lat="42.940949056" lon="-85.4682828744">
        <ele>194.889993</ele>
        <time>2024-06-09T10:08:02.000Z</time>
      </trkpt>
      <trkpt lat="42.9414860315" lon="-85.4691669293">
        <ele>194.850006</ele>
        <time>2024-06-09T10:08:11.000Z</time>
      </trkpt>
      <trkpt lat="42.94202" lon="-85.470073">
        <ele>194.600001</ele>
        <time>2024-06-09T10:08:20.000Z</time>
      </trkpt>
      <trkpt lat="42.942409" lon="-85.470743">
        <ele>194.799997</ele>
        <time>2024-06-09T10:08:27.000Z</time>
      </trkpt>
      <trkpt lat="42.942659" lon="-85.471292">
        <ele>194.850004</ele>
        <time>2024-06-09T10:08:32.000Z</time>
      </trkpt>
      <trkpt lat="42.942871" lon="-85.472005">
        <ele>195.049994</ele>
        <time>2024-06-09T10:08:38.000Z</time>
      </trkpt>
      <trkpt lat="42.942952" lon="-85.472572">
        <ele>195.349999</ele>
        <time>2024-06-09T10:08:43.000Z</time>
      </trkpt>
      <trkpt lat="42.942957" lon="-85.473318">
        <ele>195.439994</ele>
        <time>2024-06-09T10:08:49.000Z</time>
      </trkpt>
      <trkpt lat="42.9429500019" lon="-85.4739810003">
        <ele>196.119992</ele>
        <time>2024-06-09T10:08:54.000Z</time>
      </trkpt>
      <trkpt lat="42.942944" lon="-85.474657">
        <ele>196.780005</ele>
        <time>2024-06-09T10:09:00.000Z</time>
      </trkpt>
      <trkpt lat="42.9429265112" lon="-85.4755805006">
        <ele>197.940001</ele>
        <time>2024-06-09T10:09:08.000Z</time>
      </trkpt>
      <trkpt lat="42.942920015" lon="-85.4764970008">
        <ele>198.299997</ele>
        <time>2024-06-09T10:09:15.000Z</time>
      </trkpt>
      <trkpt lat="42.9428985112" lon="-85.4774315006">
        <ele>198.860004</ele>
        <time>2024-06-09T10:09:23.000Z</time>
      </trkpt>
      <trkpt lat="42.942899" lon="-85.478357">
        <ele>199.370003</ele>
        <time>2024-06-09T10:09:31.000Z</time>
      </trkpt>
    </trkseg>
  </trk>
</gpx>

<!--
Performance optimized by W3 Total Cache. Learn more: https://www.boldgrid.com/w3-total-cache/?utm_source=w3tc&utm_medium=footer_comment&utm_campaign=free_plugin

Page Caching using Disk: Enhanced{w3tc_pagecache_reject_reason} 

Served from: www.aquabike.world @ 2026-05-10 18:57:32 by W3 Total Cache
-->